<?xml version="1.0" encoding="UTF-8" standalone="no" ?>
<gpx xmlns="http://www.topografix.com/GPX/1/1" xmlns:xsi="http://www.w3.org/2001/XMLSchema-instance" xsi:schemaLocation="http://www.topografix.com/GPX/1/1 http://www.topografix.com/GPX/1/1/gpx.xsd" version="1.1" creator="VisuGPX - https://www.visugpx.com">
  <metadata>
    <name>RSPFY-Ronqueux</name>
    <desc><![CDATA[marche nordique au départ du parking de Ronqueux passant par Bonnelles et Bullion.]]></desc>
  </metadata>
  <trk>
    <name><![CDATA[2025-01-09 09:05]]></name>
    <desc><![CDATA[<p>Heure de départ: 09:05 9 janv. 2025<br/>Heure d'arrivée: 11:52 9 janv. 2025<br/>Distance: 11,7 km (02:46)<br/>Temps déplacement: 02:19<br/>Vitesse moyenne: 4,21 km/h<br/>Vitesse moyenne mouv.: 5,04 km/h<br/>Vitesse Max.: 13,94 km/h<br/>Altitude minimale: 104 m<br/>Altitude maximale: 182 m<br/>Vitesse de montée: 273,7 m/h<br/>Vitesse de descente: -254,7 m/h<br/>Gain d'altitude: 360 m<br/>Perte d'altitude: -362 m<br/>Temps de montée: 01:19<br/>Temps de descente: 01:25<br/></p><hr align="center" width="480" style="height: 2px; width: 517px"/>]]></desc>
    <trkseg>
      <trkpt lat="48.63814" lon="1.9891">
        <ele>173</ele>
        <time>2025-01-09T08:05:50Z</time>
      </trkpt>
      <trkpt lat="48.63806" lon="1.98904">
        <ele>173</ele>
        <time>2025-01-09T08:06:03Z</time>
      </trkpt>
      <trkpt lat="48.63798" lon="1.98896">
        <ele>173</ele>
        <time>2025-01-09T08:06:14Z</time>
      </trkpt>
      <trkpt lat="48.63793" lon="1.98909">
        <ele>173</ele>
        <time>2025-01-09T08:06:37Z</time>
      </trkpt>
      <trkpt lat="48.63785" lon="1.98917">
        <ele>173</ele>
        <time>2025-01-09T08:06:40Z</time>
      </trkpt>
      <trkpt lat="48.63776" lon="1.98928">
        <ele>172.5</ele>
        <time>2025-01-09T08:06:46Z</time>
      </trkpt>
      <trkpt lat="48.63767" lon="1.98943">
        <ele>171.6</ele>
        <time>2025-01-09T08:06:47Z</time>
      </trkpt>
      <trkpt lat="48.63759" lon="1.98957">
        <ele>171</ele>
        <time>2025-01-09T08:07:08Z</time>
      </trkpt>
      <trkpt lat="48.63751" lon="1.98965">
        <ele>170.3</ele>
        <time>2025-01-09T08:07:14Z</time>
      </trkpt>
      <trkpt lat="48.63743" lon="1.98973">
        <ele>169.5</ele>
        <time>2025-01-09T08:07:20Z</time>
      </trkpt>
      <trkpt lat="48.63736" lon="1.98982">
        <ele>168.6</ele>
        <time>2025-01-09T08:07:25Z</time>
      </trkpt>
      <trkpt lat="48.63728" lon="1.98992">
        <ele>167.7</ele>
        <time>2025-01-09T08:07:40Z</time>
      </trkpt>
      <trkpt lat="48.6372" lon="1.99002">
        <ele>166.9</ele>
        <time>2025-01-09T08:07:45Z</time>
      </trkpt>
      <trkpt lat="48.63714" lon="1.99014">
        <ele>166.6</ele>
        <time>2025-01-09T08:07:51Z</time>
      </trkpt>
      <trkpt lat="48.63707" lon="1.99025">
        <ele>166.3</ele>
        <time>2025-01-09T08:07:57Z</time>
      </trkpt>
      <trkpt lat="48.63702" lon="1.99036">
        <ele>166</ele>
        <time>2025-01-09T08:08:03Z</time>
      </trkpt>
      <trkpt lat="48.63695" lon="1.99046">
        <ele>165.7</ele>
        <time>2025-01-09T08:08:10Z</time>
      </trkpt>
      <trkpt lat="48.63689" lon="1.99057">
        <ele>165.6</ele>
        <time>2025-01-09T08:08:15Z</time>
      </trkpt>
      <trkpt lat="48.63681" lon="1.99066">
        <ele>165.6</ele>
        <time>2025-01-09T08:08:22Z</time>
      </trkpt>
      <trkpt lat="48.63674" lon="1.99078">
        <ele>165.9</ele>
        <time>2025-01-09T08:08:28Z</time>
      </trkpt>
      <trkpt lat="48.63667" lon="1.9909">
        <ele>166.2</ele>
        <time>2025-01-09T08:08:36Z</time>
      </trkpt>
      <trkpt lat="48.6366" lon="1.99101">
        <ele>166.3</ele>
        <time>2025-01-09T08:08:42Z</time>
      </trkpt>
      <trkpt lat="48.63653" lon="1.9911">
        <ele>166.5</ele>
        <time>2025-01-09T08:08:47Z</time>
      </trkpt>
      <trkpt lat="48.63646" lon="1.99119">
        <ele>166.5</ele>
        <time>2025-01-09T08:08:53Z</time>
      </trkpt>
      <trkpt lat="48.63639" lon="1.99129">
        <ele>166.7</ele>
        <time>2025-01-09T08:09:01Z</time>
      </trkpt>
      <trkpt lat="48.63632" lon="1.99139">
        <ele>166.7</ele>
        <time>2025-01-09T08:09:09Z</time>
      </trkpt>
      <trkpt lat="48.63624" lon="1.99148">
        <ele>166.6</ele>
        <time>2025-01-09T08:09:22Z</time>
      </trkpt>
      <trkpt lat="48.63617" lon="1.99159">
        <ele>166.8</ele>
        <time>2025-01-09T08:09:29Z</time>
      </trkpt>
      <trkpt lat="48.6361" lon="1.9917">
        <ele>167.1</ele>
        <time>2025-01-09T08:09:35Z</time>
      </trkpt>
      <trkpt lat="48.63603" lon="1.99181">
        <ele>167.5</ele>
        <time>2025-01-09T08:09:42Z</time>
      </trkpt>
      <trkpt lat="48.63596" lon="1.99191">
        <ele>167.9</ele>
        <time>2025-01-09T08:09:50Z</time>
      </trkpt>
      <trkpt lat="48.63589" lon="1.992">
        <ele>168</ele>
        <time>2025-01-09T08:09:58Z</time>
      </trkpt>
      <trkpt lat="48.63583" lon="1.99211">
        <ele>168</ele>
        <time>2025-01-09T08:10:05Z</time>
      </trkpt>
      <trkpt lat="48.63575" lon="1.99221">
        <ele>167.7</ele>
        <time>2025-01-09T08:10:11Z</time>
      </trkpt>
      <trkpt lat="48.63568" lon="1.99232">
        <ele>167.4</ele>
        <time>2025-01-09T08:10:18Z</time>
      </trkpt>
      <trkpt lat="48.63562" lon="1.99243">
        <ele>167.2</ele>
        <time>2025-01-09T08:10:25Z</time>
      </trkpt>
      <trkpt lat="48.63557" lon="1.99255">
        <ele>167</ele>
        <time>2025-01-09T08:10:34Z</time>
      </trkpt>
      <trkpt lat="48.6355" lon="1.99266">
        <ele>167</ele>
        <time>2025-01-09T08:10:40Z</time>
      </trkpt>
      <trkpt lat="48.63541" lon="1.99269">
        <ele>167</ele>
        <time>2025-01-09T08:10:46Z</time>
      </trkpt>
      <trkpt lat="48.63532" lon="1.99273">
        <ele>167</ele>
        <time>2025-01-09T08:10:53Z</time>
      </trkpt>
      <trkpt lat="48.63523" lon="1.99274">
        <ele>166.5</ele>
        <time>2025-01-09T08:10:59Z</time>
      </trkpt>
      <trkpt lat="48.63514" lon="1.99277">
        <ele>165.5</ele>
        <time>2025-01-09T08:11:06Z</time>
      </trkpt>
      <trkpt lat="48.63505" lon="1.99284">
        <ele>164.5</ele>
        <time>2025-01-09T08:11:41Z</time>
      </trkpt>
      <trkpt lat="48.63504" lon="1.993">
        <ele>164.3</ele>
        <time>2025-01-09T08:11:58Z</time>
      </trkpt>
      <trkpt lat="48.63504" lon="1.99313">
        <ele>164.5</ele>
        <time>2025-01-09T08:12:08Z</time>
      </trkpt>
      <trkpt lat="48.63503" lon="1.99328">
        <ele>164.9</ele>
        <time>2025-01-09T08:12:17Z</time>
      </trkpt>
      <trkpt lat="48.63503" lon="1.99343">
        <ele>164.8</ele>
        <time>2025-01-09T08:12:26Z</time>
      </trkpt>
      <trkpt lat="48.63501" lon="1.99357">
        <ele>164.2</ele>
        <time>2025-01-09T08:12:33Z</time>
      </trkpt>
      <trkpt lat="48.63498" lon="1.9937">
        <ele>163.7</ele>
        <time>2025-01-09T08:12:39Z</time>
      </trkpt>
      <trkpt lat="48.63496" lon="1.99384">
        <ele>163.5</ele>
        <time>2025-01-09T08:12:45Z</time>
      </trkpt>
      <trkpt lat="48.63495" lon="1.99399">
        <ele>163.2</ele>
        <time>2025-01-09T08:12:52Z</time>
      </trkpt>
      <trkpt lat="48.63495" lon="1.99414">
        <ele>163.1</ele>
        <time>2025-01-09T08:13:00Z</time>
      </trkpt>
      <trkpt lat="48.63495" lon="1.99428">
        <ele>162.9</ele>
        <time>2025-01-09T08:13:08Z</time>
      </trkpt>
      <trkpt lat="48.63497" lon="1.99442">
        <ele>163.4</ele>
        <time>2025-01-09T08:13:15Z</time>
      </trkpt>
      <trkpt lat="48.63496" lon="1.99456">
        <ele>162.8</ele>
        <time>2025-01-09T08:13:22Z</time>
      </trkpt>
      <trkpt lat="48.63499" lon="1.99471">
        <ele>162.8</ele>
        <time>2025-01-09T08:13:29Z</time>
      </trkpt>
      <trkpt lat="48.63499" lon="1.99486">
        <ele>162.3</ele>
        <time>2025-01-09T08:13:36Z</time>
      </trkpt>
      <trkpt lat="48.63496" lon="1.99499">
        <ele>161.2</ele>
        <time>2025-01-09T08:13:43Z</time>
      </trkpt>
      <trkpt lat="48.63496" lon="1.99514">
        <ele>160.7</ele>
        <time>2025-01-09T08:13:49Z</time>
      </trkpt>
      <trkpt lat="48.63494" lon="1.99528">
        <ele>159.9</ele>
        <time>2025-01-09T08:13:55Z</time>
      </trkpt>
      <trkpt lat="48.63492" lon="1.99542">
        <ele>159.6</ele>
        <time>2025-01-09T08:14:04Z</time>
      </trkpt>
      <trkpt lat="48.63489" lon="1.99556">
        <ele>159.1</ele>
        <time>2025-01-09T08:14:11Z</time>
      </trkpt>
      <trkpt lat="48.63489" lon="1.99571">
        <ele>158.9</ele>
        <time>2025-01-09T08:14:17Z</time>
      </trkpt>
      <trkpt lat="48.63489" lon="1.99585">
        <ele>158.8</ele>
        <time>2025-01-09T08:14:24Z</time>
      </trkpt>
      <trkpt lat="48.63489" lon="1.996">
        <ele>158.8</ele>
        <time>2025-01-09T08:14:31Z</time>
      </trkpt>
      <trkpt lat="48.63491" lon="1.99587">
        <ele>159.1</ele>
        <time>2025-01-09T08:14:59Z</time>
      </trkpt>
      <trkpt lat="48.63489" lon="1.99573">
        <ele>158.8</ele>
        <time>2025-01-09T08:15:10Z</time>
      </trkpt>
      <trkpt lat="48.63481" lon="1.99564">
        <ele>157.7</ele>
        <time>2025-01-09T08:15:21Z</time>
      </trkpt>
      <trkpt lat="48.63473" lon="1.9957">
        <ele>156.6</ele>
        <time>2025-01-09T08:15:27Z</time>
      </trkpt>
      <trkpt lat="48.63465" lon="1.99577">
        <ele>155.9</ele>
        <time>2025-01-09T08:15:39Z</time>
      </trkpt>
      <trkpt lat="48.63455" lon="1.99584">
        <ele>155.2</ele>
        <time>2025-01-09T08:15:47Z</time>
      </trkpt>
      <trkpt lat="48.63449" lon="1.99594">
        <ele>154.8</ele>
        <time>2025-01-09T08:15:55Z</time>
      </trkpt>
      <trkpt lat="48.6344" lon="1.99599">
        <ele>154.3</ele>
        <time>2025-01-09T08:16:02Z</time>
      </trkpt>
      <trkpt lat="48.63431" lon="1.99601">
        <ele>153.6</ele>
        <time>2025-01-09T08:16:10Z</time>
      </trkpt>
      <trkpt lat="48.63423" lon="1.99608">
        <ele>153.3</ele>
        <time>2025-01-09T08:16:16Z</time>
      </trkpt>
      <trkpt lat="48.63413" lon="1.99605">
        <ele>152.5</ele>
        <time>2025-01-09T08:16:24Z</time>
      </trkpt>
      <trkpt lat="48.63403" lon="1.99604">
        <ele>151.6</ele>
        <time>2025-01-09T08:16:33Z</time>
      </trkpt>
      <trkpt lat="48.63396" lon="1.99595">
        <ele>150.1</ele>
        <time>2025-01-09T08:16:44Z</time>
      </trkpt>
      <trkpt lat="48.63387" lon="1.99592">
        <ele>148.8</ele>
        <time>2025-01-09T08:16:56Z</time>
      </trkpt>
      <trkpt lat="48.63378" lon="1.99594">
        <ele>147.8</ele>
        <time>2025-01-09T08:17:04Z</time>
      </trkpt>
      <trkpt lat="48.63368" lon="1.99595">
        <ele>146.6</ele>
        <time>2025-01-09T08:17:13Z</time>
      </trkpt>
      <trkpt lat="48.6336" lon="1.99586">
        <ele>145.1</ele>
        <time>2025-01-09T08:17:18Z</time>
      </trkpt>
      <trkpt lat="48.63354" lon="1.99597">
        <ele>145.2</ele>
        <time>2025-01-09T08:17:33Z</time>
      </trkpt>
      <trkpt lat="48.6335" lon="1.9961">
        <ele>145.8</ele>
        <time>2025-01-09T08:17:39Z</time>
      </trkpt>
      <trkpt lat="48.63348" lon="1.99624">
        <ele>146.5</ele>
        <time>2025-01-09T08:17:50Z</time>
      </trkpt>
      <trkpt lat="48.63345" lon="1.99638">
        <ele>147.2</ele>
        <time>2025-01-09T08:17:59Z</time>
      </trkpt>
      <trkpt lat="48.63343" lon="1.99654">
        <ele>147.9</ele>
        <time>2025-01-09T08:18:07Z</time>
      </trkpt>
      <trkpt lat="48.63341" lon="1.99668">
        <ele>148.6</ele>
        <time>2025-01-09T08:18:15Z</time>
      </trkpt>
      <trkpt lat="48.6334" lon="1.99682">
        <ele>149</ele>
        <time>2025-01-09T08:18:28Z</time>
      </trkpt>
      <trkpt lat="48.63339" lon="1.99697">
        <ele>149.4</ele>
        <time>2025-01-09T08:18:49Z</time>
      </trkpt>
      <trkpt lat="48.63335" lon="1.99711">
        <ele>149.1</ele>
        <time>2025-01-09T08:18:59Z</time>
      </trkpt>
      <trkpt lat="48.63332" lon="1.99723">
        <ele>148.9</ele>
        <time>2025-01-09T08:19:19Z</time>
      </trkpt>
      <trkpt lat="48.63331" lon="1.99739">
        <ele>148.9</ele>
        <time>2025-01-09T08:19:24Z</time>
      </trkpt>
      <trkpt lat="48.63334" lon="1.99755">
        <ele>148.6</ele>
        <time>2025-01-09T08:19:30Z</time>
      </trkpt>
      <trkpt lat="48.63335" lon="1.99769">
        <ele>147.6</ele>
        <time>2025-01-09T08:19:34Z</time>
      </trkpt>
      <trkpt lat="48.63333" lon="1.99784">
        <ele>146.5</ele>
        <time>2025-01-09T08:19:39Z</time>
      </trkpt>
      <trkpt lat="48.63333" lon="1.99798">
        <ele>145.5</ele>
        <time>2025-01-09T08:19:44Z</time>
      </trkpt>
      <trkpt lat="48.63331" lon="1.99814">
        <ele>144.4</ele>
        <time>2025-01-09T08:19:50Z</time>
      </trkpt>
      <trkpt lat="48.63331" lon="1.99828">
        <ele>143.4</ele>
        <time>2025-01-09T08:19:56Z</time>
      </trkpt>
      <trkpt lat="48.63331" lon="1.99844">
        <ele>142.2</ele>
        <time>2025-01-09T08:20:03Z</time>
      </trkpt>
      <trkpt lat="48.63329" lon="1.99858">
        <ele>141.2</ele>
        <time>2025-01-09T08:20:09Z</time>
      </trkpt>
      <trkpt lat="48.63329" lon="1.99873">
        <ele>140.6</ele>
        <time>2025-01-09T08:20:16Z</time>
      </trkpt>
      <trkpt lat="48.63328" lon="1.99889">
        <ele>140</ele>
        <time>2025-01-09T08:20:23Z</time>
      </trkpt>
      <trkpt lat="48.63329" lon="1.99905">
        <ele>138.9</ele>
        <time>2025-01-09T08:20:29Z</time>
      </trkpt>
      <trkpt lat="48.6333" lon="1.99919">
        <ele>137.9</ele>
        <time>2025-01-09T08:20:35Z</time>
      </trkpt>
      <trkpt lat="48.6333" lon="1.99933">
        <ele>137.4</ele>
        <time>2025-01-09T08:20:41Z</time>
      </trkpt>
      <trkpt lat="48.6333" lon="1.99948">
        <ele>136.9</ele>
        <time>2025-01-09T08:20:47Z</time>
      </trkpt>
      <trkpt lat="48.63332" lon="1.99962">
        <ele>136.4</ele>
        <time>2025-01-09T08:20:53Z</time>
      </trkpt>
      <trkpt lat="48.63332" lon="1.99975">
        <ele>135.9</ele>
        <time>2025-01-09T08:20:59Z</time>
      </trkpt>
      <trkpt lat="48.63329" lon="1.9999">
        <ele>135.3</ele>
        <time>2025-01-09T08:21:07Z</time>
      </trkpt>
      <trkpt lat="48.6333" lon="2.00005">
        <ele>134.6</ele>
        <time>2025-01-09T08:21:15Z</time>
      </trkpt>
      <trkpt lat="48.63338" lon="2.00011">
        <ele>134.2</ele>
        <time>2025-01-09T08:21:21Z</time>
      </trkpt>
      <trkpt lat="48.63348" lon="2.0001">
        <ele>134.3</ele>
        <time>2025-01-09T08:21:28Z</time>
      </trkpt>
      <trkpt lat="48.63358" lon="2.00011">
        <ele>134.2</ele>
        <time>2025-01-09T08:21:35Z</time>
      </trkpt>
      <trkpt lat="48.63368" lon="2.00013">
        <ele>134.1</ele>
        <time>2025-01-09T08:21:42Z</time>
      </trkpt>
      <trkpt lat="48.63377" lon="2.00019">
        <ele>133.7</ele>
        <time>2025-01-09T08:21:49Z</time>
      </trkpt>
      <trkpt lat="48.63386" lon="2.0002">
        <ele>133.5</ele>
        <time>2025-01-09T08:21:56Z</time>
      </trkpt>
      <trkpt lat="48.63395" lon="2.00022">
        <ele>133.6</ele>
        <time>2025-01-09T08:22:09Z</time>
      </trkpt>
      <trkpt lat="48.63405" lon="2.00025">
        <ele>133.8</ele>
        <time>2025-01-09T08:22:16Z</time>
      </trkpt>
      <trkpt lat="48.63414" lon="2.00028">
        <ele>133.9</ele>
        <time>2025-01-09T08:22:23Z</time>
      </trkpt>
      <trkpt lat="48.63423" lon="2.00031">
        <ele>134</ele>
        <time>2025-01-09T08:22:31Z</time>
      </trkpt>
      <trkpt lat="48.63432" lon="2.00033">
        <ele>134.2</ele>
        <time>2025-01-09T08:22:38Z</time>
      </trkpt>
      <trkpt lat="48.6344" lon="2.00037">
        <ele>134.2</ele>
        <time>2025-01-09T08:22:44Z</time>
      </trkpt>
      <trkpt lat="48.6345" lon="2.00038">
        <ele>134.4</ele>
        <time>2025-01-09T08:22:50Z</time>
      </trkpt>
      <trkpt lat="48.6346" lon="2.0004">
        <ele>134.4</ele>
        <time>2025-01-09T08:22:57Z</time>
      </trkpt>
      <trkpt lat="48.63469" lon="2.00041">
        <ele>134.5</ele>
        <time>2025-01-09T08:23:04Z</time>
      </trkpt>
      <trkpt lat="48.63478" lon="2.00043">
        <ele>134.7</ele>
        <time>2025-01-09T08:23:11Z</time>
      </trkpt>
      <trkpt lat="48.63489" lon="2.00045">
        <ele>135</ele>
        <time>2025-01-09T08:23:19Z</time>
      </trkpt>
      <trkpt lat="48.63498" lon="2.00049">
        <ele>135.2</ele>
        <time>2025-01-09T08:23:27Z</time>
      </trkpt>
      <trkpt lat="48.63507" lon="2.00053">
        <ele>135.4</ele>
        <time>2025-01-09T08:23:35Z</time>
      </trkpt>
      <trkpt lat="48.63516" lon="2.0006">
        <ele>135.5</ele>
        <time>2025-01-09T08:23:43Z</time>
      </trkpt>
      <trkpt lat="48.63526" lon="2.00063">
        <ele>135.7</ele>
        <time>2025-01-09T08:23:51Z</time>
      </trkpt>
      <trkpt lat="48.63535" lon="2.0007">
        <ele>135.8</ele>
        <time>2025-01-09T08:23:58Z</time>
      </trkpt>
      <trkpt lat="48.63544" lon="2.00077">
        <ele>135.8</ele>
        <time>2025-01-09T08:24:05Z</time>
      </trkpt>
      <trkpt lat="48.63553" lon="2.0008">
        <ele>136</ele>
        <time>2025-01-09T08:24:13Z</time>
      </trkpt>
      <trkpt lat="48.63561" lon="2.00086">
        <ele>136.5</ele>
        <time>2025-01-09T08:24:22Z</time>
      </trkpt>
      <trkpt lat="48.63569" lon="2.00093">
        <ele>137.3</ele>
        <time>2025-01-09T08:24:29Z</time>
      </trkpt>
      <trkpt lat="48.63577" lon="2.001">
        <ele>138.2</ele>
        <time>2025-01-09T08:24:35Z</time>
      </trkpt>
      <trkpt lat="48.63587" lon="2.00107">
        <ele>139.2</ele>
        <time>2025-01-09T08:24:41Z</time>
      </trkpt>
      <trkpt lat="48.63594" lon="2.00117">
        <ele>139.9</ele>
        <time>2025-01-09T08:24:49Z</time>
      </trkpt>
      <trkpt lat="48.63584" lon="2.00122">
        <ele>139.5</ele>
        <time>2025-01-09T08:24:59Z</time>
      </trkpt>
      <trkpt lat="48.63576" lon="2.00128">
        <ele>139.1</ele>
        <time>2025-01-09T08:25:06Z</time>
      </trkpt>
      <trkpt lat="48.63566" lon="2.0013">
        <ele>138.5</ele>
        <time>2025-01-09T08:25:11Z</time>
      </trkpt>
      <trkpt lat="48.63557" lon="2.00134">
        <ele>138</ele>
        <time>2025-01-09T08:25:17Z</time>
      </trkpt>
      <trkpt lat="48.63549" lon="2.00141">
        <ele>137.6</ele>
        <time>2025-01-09T08:25:26Z</time>
      </trkpt>
      <trkpt lat="48.6354" lon="2.00148">
        <ele>137.4</ele>
        <time>2025-01-09T08:25:34Z</time>
      </trkpt>
      <trkpt lat="48.63532" lon="2.00156">
        <ele>137.4</ele>
        <time>2025-01-09T08:25:41Z</time>
      </trkpt>
      <trkpt lat="48.63521" lon="2.00158">
        <ele>137</ele>
        <time>2025-01-09T08:25:55Z</time>
      </trkpt>
      <trkpt lat="48.6352" lon="2.00172">
        <ele>138</ele>
        <time>2025-01-09T08:26:04Z</time>
      </trkpt>
      <trkpt lat="48.6352" lon="2.00186">
        <ele>139.3</ele>
        <time>2025-01-09T08:26:12Z</time>
      </trkpt>
      <trkpt lat="48.6352" lon="2.002">
        <ele>140.9</ele>
        <time>2025-01-09T08:26:20Z</time>
      </trkpt>
      <trkpt lat="48.63516" lon="2.00213">
        <ele>142.1</ele>
        <time>2025-01-09T08:26:27Z</time>
      </trkpt>
      <trkpt lat="48.63511" lon="2.00226">
        <ele>143.2</ele>
        <time>2025-01-09T08:26:34Z</time>
      </trkpt>
      <trkpt lat="48.63511" lon="2.0024">
        <ele>145.7</ele>
        <time>2025-01-09T08:26:42Z</time>
      </trkpt>
      <trkpt lat="48.63506" lon="2.00252">
        <ele>147.2</ele>
        <time>2025-01-09T08:26:50Z</time>
      </trkpt>
      <trkpt lat="48.63502" lon="2.00265">
        <ele>148.3</ele>
        <time>2025-01-09T08:26:58Z</time>
      </trkpt>
      <trkpt lat="48.63496" lon="2.00276">
        <ele>149.7</ele>
        <time>2025-01-09T08:27:07Z</time>
      </trkpt>
      <trkpt lat="48.63489" lon="2.00284">
        <ele>150</ele>
        <time>2025-01-09T08:27:15Z</time>
      </trkpt>
      <trkpt lat="48.63479" lon="2.00281">
        <ele>149.4</ele>
        <time>2025-01-09T08:27:44Z</time>
      </trkpt>
      <trkpt lat="48.63474" lon="2.00267">
        <ele>148.3</ele>
        <time>2025-01-09T08:27:52Z</time>
      </trkpt>
      <trkpt lat="48.63469" lon="2.00255">
        <ele>146.9</ele>
        <time>2025-01-09T08:28:00Z</time>
      </trkpt>
      <trkpt lat="48.6346" lon="2.0025">
        <ele>145.2</ele>
        <time>2025-01-09T08:28:08Z</time>
      </trkpt>
      <trkpt lat="48.63452" lon="2.00241">
        <ele>143.5</ele>
        <time>2025-01-09T08:28:17Z</time>
      </trkpt>
      <trkpt lat="48.63442" lon="2.00236">
        <ele>142.1</ele>
        <time>2025-01-09T08:28:26Z</time>
      </trkpt>
      <trkpt lat="48.63432" lon="2.00234">
        <ele>140.6</ele>
        <time>2025-01-09T08:28:33Z</time>
      </trkpt>
      <trkpt lat="48.63423" lon="2.00232">
        <ele>139.2</ele>
        <time>2025-01-09T08:28:40Z</time>
      </trkpt>
      <trkpt lat="48.63414" lon="2.00231">
        <ele>138.1</ele>
        <time>2025-01-09T08:28:47Z</time>
      </trkpt>
      <trkpt lat="48.63404" lon="2.00228">
        <ele>137.4</ele>
        <time>2025-01-09T08:28:55Z</time>
      </trkpt>
      <trkpt lat="48.63395" lon="2.00226">
        <ele>136.7</ele>
        <time>2025-01-09T08:29:03Z</time>
      </trkpt>
      <trkpt lat="48.63389" lon="2.00216">
        <ele>135.8</ele>
        <time>2025-01-09T08:29:14Z</time>
      </trkpt>
      <trkpt lat="48.63385" lon="2.00203">
        <ele>135.1</ele>
        <time>2025-01-09T08:29:34Z</time>
      </trkpt>
      <trkpt lat="48.63377" lon="2.00196">
        <ele>134.2</ele>
        <time>2025-01-09T08:29:42Z</time>
      </trkpt>
      <trkpt lat="48.6337" lon="2.00186">
        <ele>133.1</ele>
        <time>2025-01-09T08:29:49Z</time>
      </trkpt>
      <trkpt lat="48.63361" lon="2.00186">
        <ele>132.4</ele>
        <time>2025-01-09T08:29:57Z</time>
      </trkpt>
      <trkpt lat="48.63353" lon="2.00195">
        <ele>132.4</ele>
        <time>2025-01-09T08:30:10Z</time>
      </trkpt>
      <trkpt lat="48.63342" lon="2.00194">
        <ele>131.6</ele>
        <time>2025-01-09T08:30:17Z</time>
      </trkpt>
      <trkpt lat="48.63332" lon="2.002">
        <ele>131.5</ele>
        <time>2025-01-09T08:30:22Z</time>
      </trkpt>
      <trkpt lat="48.63322" lon="2.00202">
        <ele>131.3</ele>
        <time>2025-01-09T08:30:28Z</time>
      </trkpt>
      <trkpt lat="48.63311" lon="2.00198">
        <ele>130.5</ele>
        <time>2025-01-09T08:30:35Z</time>
      </trkpt>
      <trkpt lat="48.63302" lon="2.00196">
        <ele>130</ele>
        <time>2025-01-09T08:30:42Z</time>
      </trkpt>
      <trkpt lat="48.63291" lon="2.00197">
        <ele>129.7</ele>
        <time>2025-01-09T08:30:48Z</time>
      </trkpt>
      <trkpt lat="48.6328" lon="2.00197">
        <ele>129.3</ele>
        <time>2025-01-09T08:30:55Z</time>
      </trkpt>
      <trkpt lat="48.63271" lon="2.00198">
        <ele>129</ele>
        <time>2025-01-09T08:31:00Z</time>
      </trkpt>
      <trkpt lat="48.63262" lon="2.00202">
        <ele>128.8</ele>
        <time>2025-01-09T08:31:05Z</time>
      </trkpt>
      <trkpt lat="48.63252" lon="2.00204">
        <ele>128.4</ele>
        <time>2025-01-09T08:31:13Z</time>
      </trkpt>
      <trkpt lat="48.63241" lon="2.00207">
        <ele>128.3</ele>
        <time>2025-01-09T08:31:19Z</time>
      </trkpt>
      <trkpt lat="48.63232" lon="2.00209">
        <ele>128.2</ele>
        <time>2025-01-09T08:31:25Z</time>
      </trkpt>
      <trkpt lat="48.63222" lon="2.00209">
        <ele>128</ele>
        <time>2025-01-09T08:31:33Z</time>
      </trkpt>
      <trkpt lat="48.63213" lon="2.00212">
        <ele>128</ele>
        <time>2025-01-09T08:31:40Z</time>
      </trkpt>
      <trkpt lat="48.63203" lon="2.00215">
        <ele>127.8</ele>
        <time>2025-01-09T08:31:47Z</time>
      </trkpt>
      <trkpt lat="48.63193" lon="2.00215">
        <ele>127.4</ele>
        <time>2025-01-09T08:32:02Z</time>
      </trkpt>
      <trkpt lat="48.63184" lon="2.00215">
        <ele>126.8</ele>
        <time>2025-01-09T08:32:06Z</time>
      </trkpt>
      <trkpt lat="48.63175" lon="2.00216">
        <ele>126.3</ele>
        <time>2025-01-09T08:32:12Z</time>
      </trkpt>
      <trkpt lat="48.63165" lon="2.00215">
        <ele>125.7</ele>
        <time>2025-01-09T08:32:18Z</time>
      </trkpt>
      <trkpt lat="48.63156" lon="2.00218">
        <ele>125.4</ele>
        <time>2025-01-09T08:32:24Z</time>
      </trkpt>
      <trkpt lat="48.63146" lon="2.00222">
        <ele>125.3</ele>
        <time>2025-01-09T08:32:31Z</time>
      </trkpt>
      <trkpt lat="48.63137" lon="2.00227">
        <ele>125.3</ele>
        <time>2025-01-09T08:32:38Z</time>
      </trkpt>
      <trkpt lat="48.63128" lon="2.0023">
        <ele>125.3</ele>
        <time>2025-01-09T08:32:48Z</time>
      </trkpt>
      <trkpt lat="48.63119" lon="2.00227">
        <ele>124.7</ele>
        <time>2025-01-09T08:34:03Z</time>
      </trkpt>
      <trkpt lat="48.63112" lon="2.00238">
        <ele>125.7</ele>
        <time>2025-01-09T08:34:19Z</time>
      </trkpt>
      <trkpt lat="48.63102" lon="2.0024">
        <ele>126.1</ele>
        <time>2025-01-09T08:34:27Z</time>
      </trkpt>
      <trkpt lat="48.63093" lon="2.00241">
        <ele>126.4</ele>
        <time>2025-01-09T08:34:34Z</time>
      </trkpt>
      <trkpt lat="48.63083" lon="2.00244">
        <ele>127.1</ele>
        <time>2025-01-09T08:34:41Z</time>
      </trkpt>
      <trkpt lat="48.63073" lon="2.0025">
        <ele>127.7</ele>
        <time>2025-01-09T08:34:48Z</time>
      </trkpt>
      <trkpt lat="48.63065" lon="2.00255">
        <ele>128.1</ele>
        <time>2025-01-09T08:34:56Z</time>
      </trkpt>
      <trkpt lat="48.63054" lon="2.00256">
        <ele>127.8</ele>
        <time>2025-01-09T08:35:05Z</time>
      </trkpt>
      <trkpt lat="48.63046" lon="2.00259">
        <ele>127.8</ele>
        <time>2025-01-09T08:35:12Z</time>
      </trkpt>
      <trkpt lat="48.63036" lon="2.00262">
        <ele>127.7</ele>
        <time>2025-01-09T08:35:20Z</time>
      </trkpt>
      <trkpt lat="48.63027" lon="2.0027">
        <ele>128.1</ele>
        <time>2025-01-09T08:35:27Z</time>
      </trkpt>
      <trkpt lat="48.63021" lon="2.00282">
        <ele>128.8</ele>
        <time>2025-01-09T08:35:34Z</time>
      </trkpt>
      <trkpt lat="48.63014" lon="2.00292">
        <ele>128.8</ele>
        <time>2025-01-09T08:35:41Z</time>
      </trkpt>
      <trkpt lat="48.63008" lon="2.00303">
        <ele>128.8</ele>
        <time>2025-01-09T08:35:47Z</time>
      </trkpt>
      <trkpt lat="48.63002" lon="2.00313">
        <ele>128.3</ele>
        <time>2025-01-09T08:35:53Z</time>
      </trkpt>
      <trkpt lat="48.62994" lon="2.00323">
        <ele>127.6</ele>
        <time>2025-01-09T08:36:00Z</time>
      </trkpt>
      <trkpt lat="48.62986" lon="2.00332">
        <ele>127</ele>
        <time>2025-01-09T08:36:06Z</time>
      </trkpt>
      <trkpt lat="48.6298" lon="2.00342">
        <ele>126.5</ele>
        <time>2025-01-09T08:36:12Z</time>
      </trkpt>
      <trkpt lat="48.62973" lon="2.0035">
        <ele>126</ele>
        <time>2025-01-09T08:36:18Z</time>
      </trkpt>
      <trkpt lat="48.62967" lon="2.00362">
        <ele>125.8</ele>
        <time>2025-01-09T08:36:25Z</time>
      </trkpt>
      <trkpt lat="48.62957" lon="2.00367">
        <ele>125.7</ele>
        <time>2025-01-09T08:36:34Z</time>
      </trkpt>
      <trkpt lat="48.62949" lon="2.00377">
        <ele>125.7</ele>
        <time>2025-01-09T08:36:40Z</time>
      </trkpt>
      <trkpt lat="48.62942" lon="2.00386">
        <ele>125.7</ele>
        <time>2025-01-09T08:36:53Z</time>
      </trkpt>
      <trkpt lat="48.62937" lon="2.00397">
        <ele>125.8</ele>
        <time>2025-01-09T08:37:56Z</time>
      </trkpt>
      <trkpt lat="48.62937" lon="2.00413">
        <ele>126.3</ele>
        <time>2025-01-09T08:38:04Z</time>
      </trkpt>
      <trkpt lat="48.6294" lon="2.00426">
        <ele>127.4</ele>
        <time>2025-01-09T08:38:10Z</time>
      </trkpt>
      <trkpt lat="48.62944" lon="2.0044">
        <ele>128.6</ele>
        <time>2025-01-09T08:38:16Z</time>
      </trkpt>
      <trkpt lat="48.62948" lon="2.00452">
        <ele>129.6</ele>
        <time>2025-01-09T08:38:21Z</time>
      </trkpt>
      <trkpt lat="48.62953" lon="2.00463">
        <ele>130.5</ele>
        <time>2025-01-09T08:38:27Z</time>
      </trkpt>
      <trkpt lat="48.62959" lon="2.00475">
        <ele>131.2</ele>
        <time>2025-01-09T08:38:33Z</time>
      </trkpt>
      <trkpt lat="48.62963" lon="2.00489">
        <ele>132.2</ele>
        <time>2025-01-09T08:38:40Z</time>
      </trkpt>
      <trkpt lat="48.62969" lon="2.005">
        <ele>133</ele>
        <time>2025-01-09T08:38:48Z</time>
      </trkpt>
      <trkpt lat="48.62972" lon="2.00514">
        <ele>134.5</ele>
        <time>2025-01-09T08:38:57Z</time>
      </trkpt>
      <trkpt lat="48.62974" lon="2.00527">
        <ele>136</ele>
        <time>2025-01-09T08:39:04Z</time>
      </trkpt>
      <trkpt lat="48.62979" lon="2.0054">
        <ele>138</ele>
        <time>2025-01-09T08:39:12Z</time>
      </trkpt>
      <trkpt lat="48.62984" lon="2.00553">
        <ele>140.1</ele>
        <time>2025-01-09T08:39:20Z</time>
      </trkpt>
      <trkpt lat="48.62992" lon="2.00564">
        <ele>141.7</ele>
        <time>2025-01-09T08:39:28Z</time>
      </trkpt>
      <trkpt lat="48.62997" lon="2.00576">
        <ele>143.1</ele>
        <time>2025-01-09T08:39:36Z</time>
      </trkpt>
      <trkpt lat="48.63004" lon="2.00587">
        <ele>144.5</ele>
        <time>2025-01-09T08:39:44Z</time>
      </trkpt>
      <trkpt lat="48.63009" lon="2.00599">
        <ele>146.2</ele>
        <time>2025-01-09T08:39:53Z</time>
      </trkpt>
      <trkpt lat="48.63014" lon="2.00612">
        <ele>148</ele>
        <time>2025-01-09T08:40:01Z</time>
      </trkpt>
      <trkpt lat="48.63017" lon="2.00625">
        <ele>148.8</ele>
        <time>2025-01-09T08:40:10Z</time>
      </trkpt>
      <trkpt lat="48.63012" lon="2.00638">
        <ele>149.4</ele>
        <time>2025-01-09T08:44:48Z</time>
      </trkpt>
      <trkpt lat="48.63015" lon="2.00652">
        <ele>148.9</ele>
        <time>2025-01-09T08:44:56Z</time>
      </trkpt>
      <trkpt lat="48.63022" lon="2.00663">
        <ele>148.7</ele>
        <time>2025-01-09T08:45:03Z</time>
      </trkpt>
      <trkpt lat="48.63027" lon="2.00675">
        <ele>148</ele>
        <time>2025-01-09T08:45:09Z</time>
      </trkpt>
      <trkpt lat="48.63032" lon="2.00688">
        <ele>147.8</ele>
        <time>2025-01-09T08:45:18Z</time>
      </trkpt>
      <trkpt lat="48.6303" lon="2.00705">
        <ele>145.7</ele>
        <time>2025-01-09T08:45:27Z</time>
      </trkpt>
      <trkpt lat="48.6303" lon="2.0072">
        <ele>143.9</ele>
        <time>2025-01-09T08:45:51Z</time>
      </trkpt>
      <trkpt lat="48.63038" lon="2.00728">
        <ele>145.8</ele>
        <time>2025-01-09T08:45:55Z</time>
      </trkpt>
      <trkpt lat="48.63033" lon="2.00744">
        <ele>142.9</ele>
        <time>2025-01-09T08:45:58Z</time>
      </trkpt>
      <trkpt lat="48.63031" lon="2.00759">
        <ele>141.2</ele>
        <time>2025-01-09T08:46:21Z</time>
      </trkpt>
      <trkpt lat="48.63033" lon="2.00772">
        <ele>141</ele>
        <time>2025-01-09T08:46:26Z</time>
      </trkpt>
      <trkpt lat="48.63034" lon="2.00786">
        <ele>140.1</ele>
        <time>2025-01-09T08:46:31Z</time>
      </trkpt>
      <trkpt lat="48.63034" lon="2.00802">
        <ele>138.9</ele>
        <time>2025-01-09T08:46:36Z</time>
      </trkpt>
      <trkpt lat="48.63031" lon="2.00816">
        <ele>137.4</ele>
        <time>2025-01-09T08:46:40Z</time>
      </trkpt>
      <trkpt lat="48.63031" lon="2.0083">
        <ele>136.7</ele>
        <time>2025-01-09T08:46:47Z</time>
      </trkpt>
      <trkpt lat="48.63031" lon="2.00845">
        <ele>135.7</ele>
        <time>2025-01-09T08:46:54Z</time>
      </trkpt>
      <trkpt lat="48.63032" lon="2.00859">
        <ele>134.8</ele>
        <time>2025-01-09T08:47:01Z</time>
      </trkpt>
      <trkpt lat="48.63033" lon="2.00874">
        <ele>134.2</ele>
        <time>2025-01-09T08:47:09Z</time>
      </trkpt>
      <trkpt lat="48.63034" lon="2.00888">
        <ele>133.8</ele>
        <time>2025-01-09T08:47:17Z</time>
      </trkpt>
      <trkpt lat="48.63039" lon="2.009">
        <ele>134</ele>
        <time>2025-01-09T08:47:39Z</time>
      </trkpt>
      <trkpt lat="48.63034" lon="2.00913">
        <ele>133.5</ele>
        <time>2025-01-09T08:47:50Z</time>
      </trkpt>
      <trkpt lat="48.63028" lon="2.00923">
        <ele>133.5</ele>
        <time>2025-01-09T08:47:59Z</time>
      </trkpt>
      <trkpt lat="48.63027" lon="2.00938">
        <ele>134.5</ele>
        <time>2025-01-09T08:48:47Z</time>
      </trkpt>
      <trkpt lat="48.63019" lon="2.00945">
        <ele>135.1</ele>
        <time>2025-01-09T08:48:54Z</time>
      </trkpt>
      <trkpt lat="48.63012" lon="2.00955">
        <ele>136.7</ele>
        <time>2025-01-09T08:48:59Z</time>
      </trkpt>
      <trkpt lat="48.63004" lon="2.00964">
        <ele>138.5</ele>
        <time>2025-01-09T08:49:04Z</time>
      </trkpt>
      <trkpt lat="48.62995" lon="2.0097">
        <ele>139.8</ele>
        <time>2025-01-09T08:49:11Z</time>
      </trkpt>
      <trkpt lat="48.62986" lon="2.00971">
        <ele>140.2</ele>
        <time>2025-01-09T08:49:18Z</time>
      </trkpt>
      <trkpt lat="48.62977" lon="2.00966">
        <ele>139.5</ele>
        <time>2025-01-09T08:49:25Z</time>
      </trkpt>
      <trkpt lat="48.62968" lon="2.00959">
        <ele>138</ele>
        <time>2025-01-09T08:49:31Z</time>
      </trkpt>
      <trkpt lat="48.6296" lon="2.00954">
        <ele>136.4</ele>
        <time>2025-01-09T08:49:37Z</time>
      </trkpt>
      <trkpt lat="48.6295" lon="2.00953">
        <ele>135.8</ele>
        <time>2025-01-09T08:49:43Z</time>
      </trkpt>
      <trkpt lat="48.62941" lon="2.00956">
        <ele>135.6</ele>
        <time>2025-01-09T08:49:53Z</time>
      </trkpt>
      <trkpt lat="48.62934" lon="2.00946">
        <ele>133.1</ele>
        <time>2025-01-09T08:49:58Z</time>
      </trkpt>
      <trkpt lat="48.62927" lon="2.00932">
        <ele>130.4</ele>
        <time>2025-01-09T08:50:02Z</time>
      </trkpt>
      <trkpt lat="48.62919" lon="2.00925">
        <ele>129</ele>
        <time>2025-01-09T08:50:07Z</time>
      </trkpt>
      <trkpt lat="48.6291" lon="2.00934">
        <ele>129.5</ele>
        <time>2025-01-09T08:50:17Z</time>
      </trkpt>
      <trkpt lat="48.62904" lon="2.00945">
        <ele>130.1</ele>
        <time>2025-01-09T08:50:22Z</time>
      </trkpt>
      <trkpt lat="48.62899" lon="2.00958">
        <ele>131.2</ele>
        <time>2025-01-09T08:50:28Z</time>
      </trkpt>
      <trkpt lat="48.62896" lon="2.00971">
        <ele>132.3</ele>
        <time>2025-01-09T08:50:34Z</time>
      </trkpt>
      <trkpt lat="48.62894" lon="2.00985">
        <ele>133.3</ele>
        <time>2025-01-09T08:50:41Z</time>
      </trkpt>
      <trkpt lat="48.6289" lon="2.00998">
        <ele>134.1</ele>
        <time>2025-01-09T08:50:49Z</time>
      </trkpt>
      <trkpt lat="48.62889" lon="2.01013">
        <ele>134.5</ele>
        <time>2025-01-09T08:50:58Z</time>
      </trkpt>
      <trkpt lat="48.62887" lon="2.01028">
        <ele>134.8</ele>
        <time>2025-01-09T08:51:05Z</time>
      </trkpt>
      <trkpt lat="48.62885" lon="2.01042">
        <ele>135.5</ele>
        <time>2025-01-09T08:51:12Z</time>
      </trkpt>
      <trkpt lat="48.62879" lon="2.01054">
        <ele>135.4</ele>
        <time>2025-01-09T08:51:20Z</time>
      </trkpt>
      <trkpt lat="48.62872" lon="2.01064">
        <ele>134.9</ele>
        <time>2025-01-09T08:51:27Z</time>
      </trkpt>
      <trkpt lat="48.62868" lon="2.01077">
        <ele>135</ele>
        <time>2025-01-09T08:51:35Z</time>
      </trkpt>
      <trkpt lat="48.62863" lon="2.01088">
        <ele>134.6</ele>
        <time>2025-01-09T08:51:42Z</time>
      </trkpt>
      <trkpt lat="48.62857" lon="2.01101">
        <ele>135</ele>
        <time>2025-01-09T08:51:50Z</time>
      </trkpt>
      <trkpt lat="48.62851" lon="2.01114">
        <ele>135.3</ele>
        <time>2025-01-09T08:51:58Z</time>
      </trkpt>
      <trkpt lat="48.62843" lon="2.01121">
        <ele>135.1</ele>
        <time>2025-01-09T08:52:05Z</time>
      </trkpt>
      <trkpt lat="48.62835" lon="2.0113">
        <ele>134.8</ele>
        <time>2025-01-09T08:52:12Z</time>
      </trkpt>
      <trkpt lat="48.62826" lon="2.01137">
        <ele>134.2</ele>
        <time>2025-01-09T08:52:21Z</time>
      </trkpt>
      <trkpt lat="48.62817" lon="2.01142">
        <ele>133.3</ele>
        <time>2025-01-09T08:52:31Z</time>
      </trkpt>
      <trkpt lat="48.62808" lon="2.01139">
        <ele>132.3</ele>
        <time>2025-01-09T08:53:01Z</time>
      </trkpt>
      <trkpt lat="48.62799" lon="2.01138">
        <ele>131.7</ele>
        <time>2025-01-09T08:53:16Z</time>
      </trkpt>
      <trkpt lat="48.6279" lon="2.01142">
        <ele>131.6</ele>
        <time>2025-01-09T08:53:25Z</time>
      </trkpt>
      <trkpt lat="48.62781" lon="2.01148">
        <ele>131.7</ele>
        <time>2025-01-09T08:53:33Z</time>
      </trkpt>
      <trkpt lat="48.62772" lon="2.01146">
        <ele>131.5</ele>
        <time>2025-01-09T08:53:43Z</time>
      </trkpt>
      <trkpt lat="48.62764" lon="2.01143">
        <ele>131.3</ele>
        <time>2025-01-09T08:53:54Z</time>
      </trkpt>
      <trkpt lat="48.62758" lon="2.01131">
        <ele>130.5</ele>
        <time>2025-01-09T08:54:11Z</time>
      </trkpt>
      <trkpt lat="48.62749" lon="2.01135">
        <ele>130.7</ele>
        <time>2025-01-09T08:54:20Z</time>
      </trkpt>
      <trkpt lat="48.6274" lon="2.01139">
        <ele>131</ele>
        <time>2025-01-09T08:54:28Z</time>
      </trkpt>
      <trkpt lat="48.62734" lon="2.01151">
        <ele>132.1</ele>
        <time>2025-01-09T08:54:38Z</time>
      </trkpt>
      <trkpt lat="48.62729" lon="2.01164">
        <ele>133</ele>
        <time>2025-01-09T08:54:47Z</time>
      </trkpt>
      <trkpt lat="48.6272" lon="2.01171">
        <ele>133.2</ele>
        <time>2025-01-09T08:54:53Z</time>
      </trkpt>
      <trkpt lat="48.62713" lon="2.0118">
        <ele>133.3</ele>
        <time>2025-01-09T08:55:00Z</time>
      </trkpt>
      <trkpt lat="48.62706" lon="2.01191">
        <ele>133.2</ele>
        <time>2025-01-09T08:55:07Z</time>
      </trkpt>
      <trkpt lat="48.62702" lon="2.01204">
        <ele>133.6</ele>
        <time>2025-01-09T08:55:15Z</time>
      </trkpt>
      <trkpt lat="48.62698" lon="2.01217">
        <ele>134.2</ele>
        <time>2025-01-09T08:55:23Z</time>
      </trkpt>
      <trkpt lat="48.62695" lon="2.0123">
        <ele>134.4</ele>
        <time>2025-01-09T08:55:30Z</time>
      </trkpt>
      <trkpt lat="48.6269" lon="2.01243">
        <ele>134.4</ele>
        <time>2025-01-09T08:55:38Z</time>
      </trkpt>
      <trkpt lat="48.62687" lon="2.01256">
        <ele>135</ele>
        <time>2025-01-09T08:55:46Z</time>
      </trkpt>
      <trkpt lat="48.62682" lon="2.01269">
        <ele>135.8</ele>
        <time>2025-01-09T08:55:53Z</time>
      </trkpt>
      <trkpt lat="48.62678" lon="2.01282">
        <ele>136.7</ele>
        <time>2025-01-09T08:56:02Z</time>
      </trkpt>
      <trkpt lat="48.62686" lon="2.01291">
        <ele>138.2</ele>
        <time>2025-01-09T08:56:33Z</time>
      </trkpt>
      <trkpt lat="48.62686" lon="2.01306">
        <ele>139.4</ele>
        <time>2025-01-09T08:56:41Z</time>
      </trkpt>
      <trkpt lat="48.62682" lon="2.01319">
        <ele>140.3</ele>
        <time>2025-01-09T08:56:49Z</time>
      </trkpt>
      <trkpt lat="48.62677" lon="2.01332">
        <ele>141.3</ele>
        <time>2025-01-09T08:57:01Z</time>
      </trkpt>
      <trkpt lat="48.62672" lon="2.01343">
        <ele>141.7</ele>
        <time>2025-01-09T08:57:10Z</time>
      </trkpt>
      <trkpt lat="48.62664" lon="2.0135">
        <ele>142.2</ele>
        <time>2025-01-09T08:57:18Z</time>
      </trkpt>
      <trkpt lat="48.62655" lon="2.01356">
        <ele>142.6</ele>
        <time>2025-01-09T08:57:26Z</time>
      </trkpt>
      <trkpt lat="48.62646" lon="2.01362">
        <ele>143</ele>
        <time>2025-01-09T08:57:34Z</time>
      </trkpt>
      <trkpt lat="48.62639" lon="2.01371">
        <ele>143</ele>
        <time>2025-01-09T08:57:40Z</time>
      </trkpt>
      <trkpt lat="48.62632" lon="2.01381">
        <ele>142.7</ele>
        <time>2025-01-09T08:57:46Z</time>
      </trkpt>
      <trkpt lat="48.62623" lon="2.01387">
        <ele>142.4</ele>
        <time>2025-01-09T08:57:52Z</time>
      </trkpt>
      <trkpt lat="48.62615" lon="2.01397">
        <ele>141.8</ele>
        <time>2025-01-09T08:57:58Z</time>
      </trkpt>
      <trkpt lat="48.62608" lon="2.01407">
        <ele>141.3</ele>
        <time>2025-01-09T08:58:04Z</time>
      </trkpt>
      <trkpt lat="48.62602" lon="2.01419">
        <ele>140.9</ele>
        <time>2025-01-09T08:58:11Z</time>
      </trkpt>
      <trkpt lat="48.62598" lon="2.01433">
        <ele>140.4</ele>
        <time>2025-01-09T08:58:19Z</time>
      </trkpt>
      <trkpt lat="48.62596" lon="2.01447">
        <ele>139.9</ele>
        <time>2025-01-09T08:58:26Z</time>
      </trkpt>
      <trkpt lat="48.626" lon="2.01459">
        <ele>139.5</ele>
        <time>2025-01-09T08:58:33Z</time>
      </trkpt>
      <trkpt lat="48.62604" lon="2.01473">
        <ele>139</ele>
        <time>2025-01-09T08:58:40Z</time>
      </trkpt>
      <trkpt lat="48.62607" lon="2.01487">
        <ele>138.5</ele>
        <time>2025-01-09T08:58:47Z</time>
      </trkpt>
      <trkpt lat="48.62613" lon="2.01501">
        <ele>137.9</ele>
        <time>2025-01-09T08:58:54Z</time>
      </trkpt>
      <trkpt lat="48.62617" lon="2.01515">
        <ele>137.3</ele>
        <time>2025-01-09T08:59:01Z</time>
      </trkpt>
      <trkpt lat="48.62622" lon="2.01528">
        <ele>136.6</ele>
        <time>2025-01-09T08:59:08Z</time>
      </trkpt>
      <trkpt lat="48.62627" lon="2.01541">
        <ele>136</ele>
        <time>2025-01-09T08:59:14Z</time>
      </trkpt>
      <trkpt lat="48.62628" lon="2.01555">
        <ele>135.6</ele>
        <time>2025-01-09T08:59:23Z</time>
      </trkpt>
      <trkpt lat="48.6263" lon="2.01568">
        <ele>135.4</ele>
        <time>2025-01-09T08:59:35Z</time>
      </trkpt>
      <trkpt lat="48.62634" lon="2.01581">
        <ele>135.1</ele>
        <time>2025-01-09T09:00:24Z</time>
      </trkpt>
      <trkpt lat="48.62635" lon="2.01595">
        <ele>135.4</ele>
        <time>2025-01-09T09:00:33Z</time>
      </trkpt>
      <trkpt lat="48.62627" lon="2.01602">
        <ele>135.4</ele>
        <time>2025-01-09T09:00:42Z</time>
      </trkpt>
      <trkpt lat="48.62617" lon="2.01607">
        <ele>135.2</ele>
        <time>2025-01-09T09:00:49Z</time>
      </trkpt>
      <trkpt lat="48.62609" lon="2.01615">
        <ele>135.1</ele>
        <time>2025-01-09T09:00:55Z</time>
      </trkpt>
      <trkpt lat="48.626" lon="2.01624">
        <ele>134.9</ele>
        <time>2025-01-09T09:01:02Z</time>
      </trkpt>
      <trkpt lat="48.62593" lon="2.01633">
        <ele>134.6</ele>
        <time>2025-01-09T09:01:07Z</time>
      </trkpt>
      <trkpt lat="48.62584" lon="2.01639">
        <ele>134.1</ele>
        <time>2025-01-09T09:01:14Z</time>
      </trkpt>
      <trkpt lat="48.62576" lon="2.01647">
        <ele>133.7</ele>
        <time>2025-01-09T09:01:20Z</time>
      </trkpt>
      <trkpt lat="48.62568" lon="2.01655">
        <ele>133.1</ele>
        <time>2025-01-09T09:01:27Z</time>
      </trkpt>
      <trkpt lat="48.62559" lon="2.01662">
        <ele>132.4</ele>
        <time>2025-01-09T09:01:35Z</time>
      </trkpt>
      <trkpt lat="48.62552" lon="2.01673">
        <ele>131.9</ele>
        <time>2025-01-09T09:01:47Z</time>
      </trkpt>
      <trkpt lat="48.62546" lon="2.01684">
        <ele>131.7</ele>
        <time>2025-01-09T09:01:54Z</time>
      </trkpt>
      <trkpt lat="48.6254" lon="2.01694">
        <ele>131.4</ele>
        <time>2025-01-09T09:02:02Z</time>
      </trkpt>
      <trkpt lat="48.62536" lon="2.01708">
        <ele>131.4</ele>
        <time>2025-01-09T09:02:09Z</time>
      </trkpt>
      <trkpt lat="48.62531" lon="2.01721">
        <ele>131.2</ele>
        <time>2025-01-09T09:02:16Z</time>
      </trkpt>
      <trkpt lat="48.62522" lon="2.01728">
        <ele>131.1</ele>
        <time>2025-01-09T09:02:23Z</time>
      </trkpt>
      <trkpt lat="48.62512" lon="2.01731">
        <ele>130.7</ele>
        <time>2025-01-09T09:02:30Z</time>
      </trkpt>
      <trkpt lat="48.62503" lon="2.01735">
        <ele>130.2</ele>
        <time>2025-01-09T09:02:37Z</time>
      </trkpt>
      <trkpt lat="48.62493" lon="2.01737">
        <ele>129.8</ele>
        <time>2025-01-09T09:02:45Z</time>
      </trkpt>
      <trkpt lat="48.62485" lon="2.01742">
        <ele>129.4</ele>
        <time>2025-01-09T09:02:51Z</time>
      </trkpt>
      <trkpt lat="48.62476" lon="2.01742">
        <ele>129.1</ele>
        <time>2025-01-09T09:02:57Z</time>
      </trkpt>
      <trkpt lat="48.62467" lon="2.01747">
        <ele>128.8</ele>
        <time>2025-01-09T09:03:03Z</time>
      </trkpt>
      <trkpt lat="48.62457" lon="2.01751">
        <ele>128.4</ele>
        <time>2025-01-09T09:03:11Z</time>
      </trkpt>
      <trkpt lat="48.62447" lon="2.01755">
        <ele>127.9</ele>
        <time>2025-01-09T09:03:18Z</time>
      </trkpt>
      <trkpt lat="48.62437" lon="2.01759">
        <ele>127.2</ele>
        <time>2025-01-09T09:03:24Z</time>
      </trkpt>
      <trkpt lat="48.62428" lon="2.01762">
        <ele>126.6</ele>
        <time>2025-01-09T09:03:30Z</time>
      </trkpt>
      <trkpt lat="48.62418" lon="2.0176">
        <ele>126.1</ele>
        <time>2025-01-09T09:03:49Z</time>
      </trkpt>
      <trkpt lat="48.62426" lon="2.01768">
        <ele>126.5</ele>
        <time>2025-01-09T09:04:26Z</time>
      </trkpt>
      <trkpt lat="48.62424" lon="2.01783">
        <ele>126.3</ele>
        <time>2025-01-09T09:04:35Z</time>
      </trkpt>
      <trkpt lat="48.62421" lon="2.01796">
        <ele>126.3</ele>
        <time>2025-01-09T09:04:44Z</time>
      </trkpt>
      <trkpt lat="48.62415" lon="2.01808">
        <ele>126.1</ele>
        <time>2025-01-09T09:04:55Z</time>
      </trkpt>
      <trkpt lat="48.62409" lon="2.01818">
        <ele>126.7</ele>
        <time>2025-01-09T09:05:06Z</time>
      </trkpt>
      <trkpt lat="48.62401" lon="2.01827">
        <ele>126.7</ele>
        <time>2025-01-09T09:05:16Z</time>
      </trkpt>
      <trkpt lat="48.62394" lon="2.01837">
        <ele>126.6</ele>
        <time>2025-01-09T09:05:26Z</time>
      </trkpt>
      <trkpt lat="48.62386" lon="2.01845">
        <ele>127</ele>
        <time>2025-01-09T09:05:35Z</time>
      </trkpt>
      <trkpt lat="48.62378" lon="2.01852">
        <ele>127.7</ele>
        <time>2025-01-09T09:05:48Z</time>
      </trkpt>
      <trkpt lat="48.62369" lon="2.01857">
        <ele>128.4</ele>
        <time>2025-01-09T09:05:59Z</time>
      </trkpt>
      <trkpt lat="48.62367" lon="2.01844">
        <ele>127.5</ele>
        <time>2025-01-09T09:06:11Z</time>
      </trkpt>
      <trkpt lat="48.62361" lon="2.01831">
        <ele>126.9</ele>
        <time>2025-01-09T09:06:19Z</time>
      </trkpt>
      <trkpt lat="48.62355" lon="2.0182">
        <ele>126.9</ele>
        <time>2025-01-09T09:06:26Z</time>
      </trkpt>
      <trkpt lat="48.62349" lon="2.01808">
        <ele>126.6</ele>
        <time>2025-01-09T09:06:32Z</time>
      </trkpt>
      <trkpt lat="48.62342" lon="2.01797">
        <ele>126.1</ele>
        <time>2025-01-09T09:06:39Z</time>
      </trkpt>
      <trkpt lat="48.62338" lon="2.01784">
        <ele>125.4</ele>
        <time>2025-01-09T09:06:46Z</time>
      </trkpt>
      <trkpt lat="48.62332" lon="2.01772">
        <ele>124.8</ele>
        <time>2025-01-09T09:06:53Z</time>
      </trkpt>
      <trkpt lat="48.62327" lon="2.01759">
        <ele>124.3</ele>
        <time>2025-01-09T09:07:00Z</time>
      </trkpt>
      <trkpt lat="48.6232" lon="2.01747">
        <ele>123.9</ele>
        <time>2025-01-09T09:07:07Z</time>
      </trkpt>
      <trkpt lat="48.62312" lon="2.01737">
        <ele>123.6</ele>
        <time>2025-01-09T09:07:13Z</time>
      </trkpt>
      <trkpt lat="48.62305" lon="2.01725">
        <ele>123.1</ele>
        <time>2025-01-09T09:07:20Z</time>
      </trkpt>
      <trkpt lat="48.623" lon="2.01714">
        <ele>123</ele>
        <time>2025-01-09T09:07:27Z</time>
      </trkpt>
      <trkpt lat="48.62294" lon="2.01702">
        <ele>123</ele>
        <time>2025-01-09T09:07:35Z</time>
      </trkpt>
      <trkpt lat="48.62288" lon="2.0169">
        <ele>123.1</ele>
        <time>2025-01-09T09:07:42Z</time>
      </trkpt>
      <trkpt lat="48.62281" lon="2.01679">
        <ele>123.1</ele>
        <time>2025-01-09T09:07:48Z</time>
      </trkpt>
      <trkpt lat="48.62275" lon="2.01667">
        <ele>123</ele>
        <time>2025-01-09T09:07:55Z</time>
      </trkpt>
      <trkpt lat="48.62267" lon="2.01657">
        <ele>123</ele>
        <time>2025-01-09T09:08:02Z</time>
      </trkpt>
      <trkpt lat="48.62258" lon="2.01651">
        <ele>123</ele>
        <time>2025-01-09T09:08:09Z</time>
      </trkpt>
      <trkpt lat="48.62248" lon="2.01647">
        <ele>123</ele>
        <time>2025-01-09T09:08:44Z</time>
      </trkpt>
      <trkpt lat="48.6224" lon="2.01639">
        <ele>123</ele>
        <time>2025-01-09T09:08:53Z</time>
      </trkpt>
      <trkpt lat="48.62231" lon="2.01636">
        <ele>123</ele>
        <time>2025-01-09T09:09:02Z</time>
      </trkpt>
      <trkpt lat="48.62222" lon="2.01628">
        <ele>123</ele>
        <time>2025-01-09T09:09:11Z</time>
      </trkpt>
      <trkpt lat="48.62213" lon="2.01624">
        <ele>122.7</ele>
        <time>2025-01-09T09:09:19Z</time>
      </trkpt>
      <trkpt lat="48.62205" lon="2.01617">
        <ele>122.4</ele>
        <time>2025-01-09T09:09:29Z</time>
      </trkpt>
      <trkpt lat="48.622" lon="2.01605">
        <ele>122.4</ele>
        <time>2025-01-09T09:09:39Z</time>
      </trkpt>
      <trkpt lat="48.62194" lon="2.01593">
        <ele>122.6</ele>
        <time>2025-01-09T09:09:48Z</time>
      </trkpt>
      <trkpt lat="48.62188" lon="2.01582">
        <ele>122.8</ele>
        <time>2025-01-09T09:09:55Z</time>
      </trkpt>
      <trkpt lat="48.62185" lon="2.01569">
        <ele>122.7</ele>
        <time>2025-01-09T09:10:04Z</time>
      </trkpt>
      <trkpt lat="48.6218" lon="2.01557">
        <ele>122.5</ele>
        <time>2025-01-09T09:10:11Z</time>
      </trkpt>
      <trkpt lat="48.62174" lon="2.01545">
        <ele>122.3</ele>
        <time>2025-01-09T09:10:17Z</time>
      </trkpt>
      <trkpt lat="48.62169" lon="2.01533">
        <ele>122.1</ele>
        <time>2025-01-09T09:10:23Z</time>
      </trkpt>
      <trkpt lat="48.62167" lon="2.0152">
        <ele>122</ele>
        <time>2025-01-09T09:10:31Z</time>
      </trkpt>
      <trkpt lat="48.62158" lon="2.0151">
        <ele>122</ele>
        <time>2025-01-09T09:10:40Z</time>
      </trkpt>
      <trkpt lat="48.62152" lon="2.01498">
        <ele>122</ele>
        <time>2025-01-09T09:10:47Z</time>
      </trkpt>
      <trkpt lat="48.62146" lon="2.01486">
        <ele>122.1</ele>
        <time>2025-01-09T09:10:55Z</time>
      </trkpt>
      <trkpt lat="48.62141" lon="2.01474">
        <ele>122.1</ele>
        <time>2025-01-09T09:11:02Z</time>
      </trkpt>
      <trkpt lat="48.62137" lon="2.01461">
        <ele>122.4</ele>
        <time>2025-01-09T09:11:08Z</time>
      </trkpt>
      <trkpt lat="48.62131" lon="2.0145">
        <ele>122.8</ele>
        <time>2025-01-09T09:11:14Z</time>
      </trkpt>
      <trkpt lat="48.62124" lon="2.0144">
        <ele>123</ele>
        <time>2025-01-09T09:11:20Z</time>
      </trkpt>
      <trkpt lat="48.62118" lon="2.01428">
        <ele>123</ele>
        <time>2025-01-09T09:11:27Z</time>
      </trkpt>
      <trkpt lat="48.62113" lon="2.01415">
        <ele>123</ele>
        <time>2025-01-09T09:11:34Z</time>
      </trkpt>
      <trkpt lat="48.62107" lon="2.01405">
        <ele>123</ele>
        <time>2025-01-09T09:11:40Z</time>
      </trkpt>
      <trkpt lat="48.62101" lon="2.01393">
        <ele>123</ele>
        <time>2025-01-09T09:11:46Z</time>
      </trkpt>
      <trkpt lat="48.62095" lon="2.01382">
        <ele>123</ele>
        <time>2025-01-09T09:11:53Z</time>
      </trkpt>
      <trkpt lat="48.62088" lon="2.0137">
        <ele>123</ele>
        <time>2025-01-09T09:12:00Z</time>
      </trkpt>
      <trkpt lat="48.62085" lon="2.01357">
        <ele>123.1</ele>
        <time>2025-01-09T09:12:08Z</time>
      </trkpt>
      <trkpt lat="48.6208" lon="2.01344">
        <ele>123.7</ele>
        <time>2025-01-09T09:12:16Z</time>
      </trkpt>
      <trkpt lat="48.62073" lon="2.01332">
        <ele>124</ele>
        <time>2025-01-09T09:12:22Z</time>
      </trkpt>
      <trkpt lat="48.62066" lon="2.0132">
        <ele>124.5</ele>
        <time>2025-01-09T09:12:29Z</time>
      </trkpt>
      <trkpt lat="48.62059" lon="2.01308">
        <ele>124.9</ele>
        <time>2025-01-09T09:12:36Z</time>
      </trkpt>
      <trkpt lat="48.62053" lon="2.01297">
        <ele>125.3</ele>
        <time>2025-01-09T09:12:43Z</time>
      </trkpt>
      <trkpt lat="48.62049" lon="2.01284">
        <ele>126</ele>
        <time>2025-01-09T09:12:51Z</time>
      </trkpt>
      <trkpt lat="48.62042" lon="2.01273">
        <ele>126.7</ele>
        <time>2025-01-09T09:12:58Z</time>
      </trkpt>
      <trkpt lat="48.62038" lon="2.01259">
        <ele>127.3</ele>
        <time>2025-01-09T09:13:09Z</time>
      </trkpt>
      <trkpt lat="48.62031" lon="2.0125">
        <ele>127.9</ele>
        <time>2025-01-09T09:13:16Z</time>
      </trkpt>
      <trkpt lat="48.62027" lon="2.01237">
        <ele>128</ele>
        <time>2025-01-09T09:13:24Z</time>
      </trkpt>
      <trkpt lat="48.62022" lon="2.01226">
        <ele>128</ele>
        <time>2025-01-09T09:13:31Z</time>
      </trkpt>
      <trkpt lat="48.62022" lon="2.01212">
        <ele>128</ele>
        <time>2025-01-09T09:13:38Z</time>
      </trkpt>
      <trkpt lat="48.62018" lon="2.01198">
        <ele>128</ele>
        <time>2025-01-09T09:13:44Z</time>
      </trkpt>
      <trkpt lat="48.62013" lon="2.01186">
        <ele>127.7</ele>
        <time>2025-01-09T09:13:52Z</time>
      </trkpt>
      <trkpt lat="48.62008" lon="2.01174">
        <ele>127.3</ele>
        <time>2025-01-09T09:13:59Z</time>
      </trkpt>
      <trkpt lat="48.62006" lon="2.01159">
        <ele>126.2</ele>
        <time>2025-01-09T09:14:09Z</time>
      </trkpt>
      <trkpt lat="48.61998" lon="2.01152">
        <ele>125.4</ele>
        <time>2025-01-09T09:14:17Z</time>
      </trkpt>
      <trkpt lat="48.61991" lon="2.01161">
        <ele>125.9</ele>
        <time>2025-01-09T09:14:34Z</time>
      </trkpt>
      <trkpt lat="48.61984" lon="2.01172">
        <ele>126</ele>
        <time>2025-01-09T09:14:41Z</time>
      </trkpt>
      <trkpt lat="48.61975" lon="2.01176">
        <ele>125.5</ele>
        <time>2025-01-09T09:14:47Z</time>
      </trkpt>
      <trkpt lat="48.61966" lon="2.01183">
        <ele>125.1</ele>
        <time>2025-01-09T09:14:52Z</time>
      </trkpt>
      <trkpt lat="48.61958" lon="2.0119">
        <ele>124.8</ele>
        <time>2025-01-09T09:14:58Z</time>
      </trkpt>
      <trkpt lat="48.6195" lon="2.01199">
        <ele>124.5</ele>
        <time>2025-01-09T09:15:05Z</time>
      </trkpt>
      <trkpt lat="48.61943" lon="2.01209">
        <ele>124.5</ele>
        <time>2025-01-09T09:15:11Z</time>
      </trkpt>
      <trkpt lat="48.61934" lon="2.01218">
        <ele>124.8</ele>
        <time>2025-01-09T09:15:18Z</time>
      </trkpt>
      <trkpt lat="48.61927" lon="2.01225">
        <ele>125</ele>
        <time>2025-01-09T09:15:24Z</time>
      </trkpt>
      <trkpt lat="48.61918" lon="2.01229">
        <ele>125</ele>
        <time>2025-01-09T09:15:31Z</time>
      </trkpt>
      <trkpt lat="48.61909" lon="2.01231">
        <ele>125</ele>
        <time>2025-01-09T09:15:38Z</time>
      </trkpt>
      <trkpt lat="48.61899" lon="2.0123">
        <ele>125</ele>
        <time>2025-01-09T09:15:45Z</time>
      </trkpt>
      <trkpt lat="48.6189" lon="2.01227">
        <ele>125</ele>
        <time>2025-01-09T09:15:52Z</time>
      </trkpt>
      <trkpt lat="48.61881" lon="2.01223">
        <ele>124.7</ele>
        <time>2025-01-09T09:15:58Z</time>
      </trkpt>
      <trkpt lat="48.61872" lon="2.01221">
        <ele>124.4</ele>
        <time>2025-01-09T09:16:05Z</time>
      </trkpt>
      <trkpt lat="48.61864" lon="2.01225">
        <ele>124.2</ele>
        <time>2025-01-09T09:16:16Z</time>
      </trkpt>
      <trkpt lat="48.61856" lon="2.01217">
        <ele>123.8</ele>
        <time>2025-01-09T09:17:55Z</time>
      </trkpt>
      <trkpt lat="48.61846" lon="2.01215">
        <ele>123.7</ele>
        <time>2025-01-09T09:18:02Z</time>
      </trkpt>
      <trkpt lat="48.61836" lon="2.01214">
        <ele>123.7</ele>
        <time>2025-01-09T09:18:08Z</time>
      </trkpt>
      <trkpt lat="48.61828" lon="2.01212">
        <ele>123.7</ele>
        <time>2025-01-09T09:18:15Z</time>
      </trkpt>
      <trkpt lat="48.61818" lon="2.01215">
        <ele>123.9</ele>
        <time>2025-01-09T09:18:23Z</time>
      </trkpt>
      <trkpt lat="48.61809" lon="2.01219">
        <ele>124</ele>
        <time>2025-01-09T09:18:30Z</time>
      </trkpt>
      <trkpt lat="48.618" lon="2.01225">
        <ele>124</ele>
        <time>2025-01-09T09:18:37Z</time>
      </trkpt>
      <trkpt lat="48.61791" lon="2.01229">
        <ele>124</ele>
        <time>2025-01-09T09:18:45Z</time>
      </trkpt>
      <trkpt lat="48.61783" lon="2.01238">
        <ele>124</ele>
        <time>2025-01-09T09:18:56Z</time>
      </trkpt>
      <trkpt lat="48.61772" lon="2.01242">
        <ele>124</ele>
        <time>2025-01-09T09:19:03Z</time>
      </trkpt>
      <trkpt lat="48.61763" lon="2.01248">
        <ele>124</ele>
        <time>2025-01-09T09:19:11Z</time>
      </trkpt>
      <trkpt lat="48.61755" lon="2.01258">
        <ele>124</ele>
        <time>2025-01-09T09:19:18Z</time>
      </trkpt>
      <trkpt lat="48.61747" lon="2.01266">
        <ele>123.9</ele>
        <time>2025-01-09T09:19:25Z</time>
      </trkpt>
      <trkpt lat="48.6174" lon="2.01278">
        <ele>123.7</ele>
        <time>2025-01-09T09:19:32Z</time>
      </trkpt>
      <trkpt lat="48.61733" lon="2.01288">
        <ele>123.4</ele>
        <time>2025-01-09T09:19:38Z</time>
      </trkpt>
      <trkpt lat="48.61725" lon="2.01298">
        <ele>123.1</ele>
        <time>2025-01-09T09:19:45Z</time>
      </trkpt>
      <trkpt lat="48.61719" lon="2.01309">
        <ele>122.9</ele>
        <time>2025-01-09T09:19:51Z</time>
      </trkpt>
      <trkpt lat="48.61712" lon="2.01317">
        <ele>122.6</ele>
        <time>2025-01-09T09:19:57Z</time>
      </trkpt>
      <trkpt lat="48.61705" lon="2.01327">
        <ele>122.4</ele>
        <time>2025-01-09T09:20:03Z</time>
      </trkpt>
      <trkpt lat="48.61697" lon="2.01335">
        <ele>122.1</ele>
        <time>2025-01-09T09:20:09Z</time>
      </trkpt>
      <trkpt lat="48.6169" lon="2.01344">
        <ele>122</ele>
        <time>2025-01-09T09:20:15Z</time>
      </trkpt>
      <trkpt lat="48.61682" lon="2.01354">
        <ele>122</ele>
        <time>2025-01-09T09:20:22Z</time>
      </trkpt>
      <trkpt lat="48.61674" lon="2.01363">
        <ele>122</ele>
        <time>2025-01-09T09:20:28Z</time>
      </trkpt>
      <trkpt lat="48.61667" lon="2.01373">
        <ele>121.6</ele>
        <time>2025-01-09T09:20:35Z</time>
      </trkpt>
      <trkpt lat="48.6166" lon="2.01384">
        <ele>121.2</ele>
        <time>2025-01-09T09:20:42Z</time>
      </trkpt>
      <trkpt lat="48.61652" lon="2.01392">
        <ele>121</ele>
        <time>2025-01-09T09:20:49Z</time>
      </trkpt>
      <trkpt lat="48.61645" lon="2.014">
        <ele>121</ele>
        <time>2025-01-09T09:20:56Z</time>
      </trkpt>
      <trkpt lat="48.61638" lon="2.01412">
        <ele>121</ele>
        <time>2025-01-09T09:21:03Z</time>
      </trkpt>
      <trkpt lat="48.6163" lon="2.01422">
        <ele>120.8</ele>
        <time>2025-01-09T09:21:10Z</time>
      </trkpt>
      <trkpt lat="48.61622" lon="2.01429">
        <ele>120.5</ele>
        <time>2025-01-09T09:21:18Z</time>
      </trkpt>
      <trkpt lat="48.61615" lon="2.0144">
        <ele>120.2</ele>
        <time>2025-01-09T09:21:25Z</time>
      </trkpt>
      <trkpt lat="48.61607" lon="2.01447">
        <ele>120.3</ele>
        <time>2025-01-09T09:21:32Z</time>
      </trkpt>
      <trkpt lat="48.61601" lon="2.01457">
        <ele>120.6</ele>
        <time>2025-01-09T09:21:38Z</time>
      </trkpt>
      <trkpt lat="48.61594" lon="2.01466">
        <ele>120.8</ele>
        <time>2025-01-09T09:21:45Z</time>
      </trkpt>
      <trkpt lat="48.61586" lon="2.01477">
        <ele>120.9</ele>
        <time>2025-01-09T09:21:52Z</time>
      </trkpt>
      <trkpt lat="48.61579" lon="2.01485">
        <ele>121.1</ele>
        <time>2025-01-09T09:21:57Z</time>
      </trkpt>
      <trkpt lat="48.61571" lon="2.01495">
        <ele>121.1</ele>
        <time>2025-01-09T09:22:04Z</time>
      </trkpt>
      <trkpt lat="48.61563" lon="2.01504">
        <ele>121</ele>
        <time>2025-01-09T09:22:11Z</time>
      </trkpt>
      <trkpt lat="48.61555" lon="2.01511">
        <ele>121</ele>
        <time>2025-01-09T09:22:18Z</time>
      </trkpt>
      <trkpt lat="48.61545" lon="2.01513">
        <ele>121.2</ele>
        <time>2025-01-09T09:22:25Z</time>
      </trkpt>
      <trkpt lat="48.61535" lon="2.01514">
        <ele>121.4</ele>
        <time>2025-01-09T09:22:32Z</time>
      </trkpt>
      <trkpt lat="48.61526" lon="2.01516">
        <ele>121.4</ele>
        <time>2025-01-09T09:22:39Z</time>
      </trkpt>
      <trkpt lat="48.61516" lon="2.01517">
        <ele>121.4</ele>
        <time>2025-01-09T09:22:47Z</time>
      </trkpt>
      <trkpt lat="48.61506" lon="2.01514">
        <ele>121.5</ele>
        <time>2025-01-09T09:22:54Z</time>
      </trkpt>
      <trkpt lat="48.61497" lon="2.01517">
        <ele>121.4</ele>
        <time>2025-01-09T09:23:01Z</time>
      </trkpt>
      <trkpt lat="48.61487" lon="2.01521">
        <ele>121.2</ele>
        <time>2025-01-09T09:23:09Z</time>
      </trkpt>
      <trkpt lat="48.61477" lon="2.01522">
        <ele>121.2</ele>
        <time>2025-01-09T09:23:17Z</time>
      </trkpt>
      <trkpt lat="48.61467" lon="2.01525">
        <ele>121.1</ele>
        <time>2025-01-09T09:23:24Z</time>
      </trkpt>
      <trkpt lat="48.61457" lon="2.01526">
        <ele>121</ele>
        <time>2025-01-09T09:23:31Z</time>
      </trkpt>
      <trkpt lat="48.61448" lon="2.01527">
        <ele>121</ele>
        <time>2025-01-09T09:23:38Z</time>
      </trkpt>
      <trkpt lat="48.61437" lon="2.01526">
        <ele>121</ele>
        <time>2025-01-09T09:23:45Z</time>
      </trkpt>
      <trkpt lat="48.61428" lon="2.01529">
        <ele>121</ele>
        <time>2025-01-09T09:23:52Z</time>
      </trkpt>
      <trkpt lat="48.61419" lon="2.01532">
        <ele>120.9</ele>
        <time>2025-01-09T09:23:59Z</time>
      </trkpt>
      <trkpt lat="48.6141" lon="2.01533">
        <ele>121.1</ele>
        <time>2025-01-09T09:24:07Z</time>
      </trkpt>
      <trkpt lat="48.614" lon="2.01534">
        <ele>121.4</ele>
        <time>2025-01-09T09:24:15Z</time>
      </trkpt>
      <trkpt lat="48.61391" lon="2.01533">
        <ele>121.8</ele>
        <time>2025-01-09T09:24:22Z</time>
      </trkpt>
      <trkpt lat="48.61381" lon="2.01534">
        <ele>121.5</ele>
        <time>2025-01-09T09:24:28Z</time>
      </trkpt>
      <trkpt lat="48.61372" lon="2.01535">
        <ele>121.1</ele>
        <time>2025-01-09T09:24:34Z</time>
      </trkpt>
      <trkpt lat="48.61361" lon="2.01536">
        <ele>120.7</ele>
        <time>2025-01-09T09:24:41Z</time>
      </trkpt>
      <trkpt lat="48.61351" lon="2.01537">
        <ele>120.3</ele>
        <time>2025-01-09T09:24:48Z</time>
      </trkpt>
      <trkpt lat="48.61342" lon="2.01536">
        <ele>120</ele>
        <time>2025-01-09T09:24:55Z</time>
      </trkpt>
      <trkpt lat="48.61332" lon="2.01535">
        <ele>119.7</ele>
        <time>2025-01-09T09:25:03Z</time>
      </trkpt>
      <trkpt lat="48.61323" lon="2.01531">
        <ele>119.9</ele>
        <time>2025-01-09T09:25:09Z</time>
      </trkpt>
      <trkpt lat="48.61313" lon="2.0153">
        <ele>119.9</ele>
        <time>2025-01-09T09:25:16Z</time>
      </trkpt>
      <trkpt lat="48.61304" lon="2.01526">
        <ele>120.1</ele>
        <time>2025-01-09T09:25:23Z</time>
      </trkpt>
      <trkpt lat="48.61295" lon="2.01522">
        <ele>120.2</ele>
        <time>2025-01-09T09:25:29Z</time>
      </trkpt>
      <trkpt lat="48.61285" lon="2.01519">
        <ele>120.3</ele>
        <time>2025-01-09T09:25:35Z</time>
      </trkpt>
      <trkpt lat="48.61275" lon="2.01518">
        <ele>120.3</ele>
        <time>2025-01-09T09:25:41Z</time>
      </trkpt>
      <trkpt lat="48.61266" lon="2.01518">
        <ele>120.2</ele>
        <time>2025-01-09T09:25:46Z</time>
      </trkpt>
      <trkpt lat="48.61257" lon="2.01515">
        <ele>120.1</ele>
        <time>2025-01-09T09:25:52Z</time>
      </trkpt>
      <trkpt lat="48.61248" lon="2.01511">
        <ele>119.9</ele>
        <time>2025-01-09T09:25:58Z</time>
      </trkpt>
      <trkpt lat="48.61239" lon="2.01505">
        <ele>119.6</ele>
        <time>2025-01-09T09:26:05Z</time>
      </trkpt>
      <trkpt lat="48.6123" lon="2.015">
        <ele>119.3</ele>
        <time>2025-01-09T09:26:12Z</time>
      </trkpt>
      <trkpt lat="48.61221" lon="2.01495">
        <ele>119.2</ele>
        <time>2025-01-09T09:26:19Z</time>
      </trkpt>
      <trkpt lat="48.61212" lon="2.01488">
        <ele>119.3</ele>
        <time>2025-01-09T09:26:26Z</time>
      </trkpt>
      <trkpt lat="48.61203" lon="2.01482">
        <ele>119.2</ele>
        <time>2025-01-09T09:26:33Z</time>
      </trkpt>
      <trkpt lat="48.61194" lon="2.01477">
        <ele>119</ele>
        <time>2025-01-09T09:26:40Z</time>
      </trkpt>
      <trkpt lat="48.61185" lon="2.01471">
        <ele>118.7</ele>
        <time>2025-01-09T09:26:47Z</time>
      </trkpt>
      <trkpt lat="48.61175" lon="2.01465">
        <ele>118.3</ele>
        <time>2025-01-09T09:26:54Z</time>
      </trkpt>
      <trkpt lat="48.61166" lon="2.0146">
        <ele>118</ele>
        <time>2025-01-09T09:27:01Z</time>
      </trkpt>
      <trkpt lat="48.61157" lon="2.01455">
        <ele>118</ele>
        <time>2025-01-09T09:27:08Z</time>
      </trkpt>
      <trkpt lat="48.61147" lon="2.01454">
        <ele>118</ele>
        <time>2025-01-09T09:27:17Z</time>
      </trkpt>
      <trkpt lat="48.61138" lon="2.01447">
        <ele>118</ele>
        <time>2025-01-09T09:27:28Z</time>
      </trkpt>
      <trkpt lat="48.6113" lon="2.0144">
        <ele>117.7</ele>
        <time>2025-01-09T09:27:35Z</time>
      </trkpt>
      <trkpt lat="48.61121" lon="2.01435">
        <ele>117.4</ele>
        <time>2025-01-09T09:27:42Z</time>
      </trkpt>
      <trkpt lat="48.61112" lon="2.01428">
        <ele>117</ele>
        <time>2025-01-09T09:27:49Z</time>
      </trkpt>
      <trkpt lat="48.61104" lon="2.01422">
        <ele>117</ele>
        <time>2025-01-09T09:27:56Z</time>
      </trkpt>
      <trkpt lat="48.61096" lon="2.01414">
        <ele>117</ele>
        <time>2025-01-09T09:28:03Z</time>
      </trkpt>
      <trkpt lat="48.61087" lon="2.01407">
        <ele>117</ele>
        <time>2025-01-09T09:28:10Z</time>
      </trkpt>
      <trkpt lat="48.61078" lon="2.01399">
        <ele>117</ele>
        <time>2025-01-09T09:28:17Z</time>
      </trkpt>
      <trkpt lat="48.6107" lon="2.01391">
        <ele>117</ele>
        <time>2025-01-09T09:28:24Z</time>
      </trkpt>
      <trkpt lat="48.61062" lon="2.01383">
        <ele>117.2</ele>
        <time>2025-01-09T09:28:31Z</time>
      </trkpt>
      <trkpt lat="48.61053" lon="2.01374">
        <ele>117.5</ele>
        <time>2025-01-09T09:28:38Z</time>
      </trkpt>
      <trkpt lat="48.61045" lon="2.01366">
        <ele>117.8</ele>
        <time>2025-01-09T09:28:45Z</time>
      </trkpt>
      <trkpt lat="48.61036" lon="2.01358">
        <ele>118</ele>
        <time>2025-01-09T09:28:52Z</time>
      </trkpt>
      <trkpt lat="48.61029" lon="2.01349">
        <ele>118</ele>
        <time>2025-01-09T09:28:58Z</time>
      </trkpt>
      <trkpt lat="48.6102" lon="2.01341">
        <ele>118.2</ele>
        <time>2025-01-09T09:29:05Z</time>
      </trkpt>
      <trkpt lat="48.61012" lon="2.01333">
        <ele>118.6</ele>
        <time>2025-01-09T09:29:12Z</time>
      </trkpt>
      <trkpt lat="48.61004" lon="2.01323">
        <ele>119.2</ele>
        <time>2025-01-09T09:29:19Z</time>
      </trkpt>
      <trkpt lat="48.60997" lon="2.01314">
        <ele>119.9</ele>
        <time>2025-01-09T09:29:25Z</time>
      </trkpt>
      <trkpt lat="48.6099" lon="2.01304">
        <ele>120.4</ele>
        <time>2025-01-09T09:29:33Z</time>
      </trkpt>
      <trkpt lat="48.60984" lon="2.01292">
        <ele>120.8</ele>
        <time>2025-01-09T09:29:52Z</time>
      </trkpt>
      <trkpt lat="48.60976" lon="2.01285">
        <ele>121.5</ele>
        <time>2025-01-09T09:30:01Z</time>
      </trkpt>
      <trkpt lat="48.60984" lon="2.01293">
        <ele>120.8</ele>
        <time>2025-01-09T09:31:11Z</time>
      </trkpt>
      <trkpt lat="48.60993" lon="2.01299">
        <ele>120.3</ele>
        <time>2025-01-09T09:31:22Z</time>
      </trkpt>
      <trkpt lat="48.60984" lon="2.01294">
        <ele>120.8</ele>
        <time>2025-01-09T09:32:55Z</time>
      </trkpt>
      <trkpt lat="48.60977" lon="2.01286">
        <ele>121.4</ele>
        <time>2025-01-09T09:33:03Z</time>
      </trkpt>
      <trkpt lat="48.60969" lon="2.01278">
        <ele>122</ele>
        <time>2025-01-09T09:33:11Z</time>
      </trkpt>
      <trkpt lat="48.60961" lon="2.01272">
        <ele>122.1</ele>
        <time>2025-01-09T09:33:19Z</time>
      </trkpt>
      <trkpt lat="48.60952" lon="2.01267">
        <ele>122.3</ele>
        <time>2025-01-09T09:33:26Z</time>
      </trkpt>
      <trkpt lat="48.60943" lon="2.01261">
        <ele>122.6</ele>
        <time>2025-01-09T09:33:33Z</time>
      </trkpt>
      <trkpt lat="48.60934" lon="2.01256">
        <ele>122.5</ele>
        <time>2025-01-09T09:33:40Z</time>
      </trkpt>
      <trkpt lat="48.60926" lon="2.0125">
        <ele>122.3</ele>
        <time>2025-01-09T09:33:47Z</time>
      </trkpt>
      <trkpt lat="48.60917" lon="2.01242">
        <ele>122</ele>
        <time>2025-01-09T09:33:55Z</time>
      </trkpt>
      <trkpt lat="48.60908" lon="2.01238">
        <ele>122</ele>
        <time>2025-01-09T09:34:02Z</time>
      </trkpt>
      <trkpt lat="48.609" lon="2.0123">
        <ele>122</ele>
        <time>2025-01-09T09:34:09Z</time>
      </trkpt>
      <trkpt lat="48.60892" lon="2.01223">
        <ele>122</ele>
        <time>2025-01-09T09:34:15Z</time>
      </trkpt>
      <trkpt lat="48.60883" lon="2.01218">
        <ele>121.8</ele>
        <time>2025-01-09T09:34:22Z</time>
      </trkpt>
      <trkpt lat="48.60873" lon="2.01213">
        <ele>121.4</ele>
        <time>2025-01-09T09:34:29Z</time>
      </trkpt>
      <trkpt lat="48.60864" lon="2.01208">
        <ele>121.1</ele>
        <time>2025-01-09T09:34:36Z</time>
      </trkpt>
      <trkpt lat="48.60856" lon="2.01201">
        <ele>120.8</ele>
        <time>2025-01-09T09:34:43Z</time>
      </trkpt>
      <trkpt lat="48.60848" lon="2.01194">
        <ele>120.5</ele>
        <time>2025-01-09T09:34:50Z</time>
      </trkpt>
      <trkpt lat="48.6084" lon="2.01187">
        <ele>120.2</ele>
        <time>2025-01-09T09:34:57Z</time>
      </trkpt>
      <trkpt lat="48.60831" lon="2.0118">
        <ele>119.9</ele>
        <time>2025-01-09T09:35:03Z</time>
      </trkpt>
      <trkpt lat="48.60822" lon="2.01176">
        <ele>119.3</ele>
        <time>2025-01-09T09:35:10Z</time>
      </trkpt>
      <trkpt lat="48.60813" lon="2.01171">
        <ele>118.6</ele>
        <time>2025-01-09T09:35:16Z</time>
      </trkpt>
      <trkpt lat="48.60803" lon="2.01166">
        <ele>117.8</ele>
        <time>2025-01-09T09:35:24Z</time>
      </trkpt>
      <trkpt lat="48.60794" lon="2.01162">
        <ele>117.1</ele>
        <time>2025-01-09T09:35:31Z</time>
      </trkpt>
      <trkpt lat="48.60784" lon="2.01157">
        <ele>116.2</ele>
        <time>2025-01-09T09:35:38Z</time>
      </trkpt>
      <trkpt lat="48.60776" lon="2.01149">
        <ele>115.3</ele>
        <time>2025-01-09T09:35:45Z</time>
      </trkpt>
      <trkpt lat="48.60767" lon="2.01144">
        <ele>114.8</ele>
        <time>2025-01-09T09:35:51Z</time>
      </trkpt>
      <trkpt lat="48.60758" lon="2.0114">
        <ele>114.3</ele>
        <time>2025-01-09T09:35:57Z</time>
      </trkpt>
      <trkpt lat="48.60749" lon="2.01137">
        <ele>114</ele>
        <time>2025-01-09T09:36:02Z</time>
      </trkpt>
      <trkpt lat="48.6074" lon="2.01133">
        <ele>114</ele>
        <time>2025-01-09T09:36:08Z</time>
      </trkpt>
      <trkpt lat="48.60729" lon="2.01132">
        <ele>114</ele>
        <time>2025-01-09T09:36:14Z</time>
      </trkpt>
      <trkpt lat="48.60719" lon="2.01128">
        <ele>113.9</ele>
        <time>2025-01-09T09:36:21Z</time>
      </trkpt>
      <trkpt lat="48.60709" lon="2.01127">
        <ele>113.5</ele>
        <time>2025-01-09T09:36:28Z</time>
      </trkpt>
      <trkpt lat="48.607" lon="2.01124">
        <ele>113.2</ele>
        <time>2025-01-09T09:36:34Z</time>
      </trkpt>
      <trkpt lat="48.6069" lon="2.01123">
        <ele>112.9</ele>
        <time>2025-01-09T09:36:40Z</time>
      </trkpt>
      <trkpt lat="48.60682" lon="2.01118">
        <ele>112.8</ele>
        <time>2025-01-09T09:36:46Z</time>
      </trkpt>
      <trkpt lat="48.60672" lon="2.01115">
        <ele>112.8</ele>
        <time>2025-01-09T09:36:53Z</time>
      </trkpt>
      <trkpt lat="48.60663" lon="2.01111">
        <ele>112.7</ele>
        <time>2025-01-09T09:37:00Z</time>
      </trkpt>
      <trkpt lat="48.60654" lon="2.01107">
        <ele>112.3</ele>
        <time>2025-01-09T09:37:08Z</time>
      </trkpt>
      <trkpt lat="48.60645" lon="2.01103">
        <ele>111.9</ele>
        <time>2025-01-09T09:37:17Z</time>
      </trkpt>
      <trkpt lat="48.60637" lon="2.01095">
        <ele>112</ele>
        <time>2025-01-09T09:37:40Z</time>
      </trkpt>
      <trkpt lat="48.60628" lon="2.0109">
        <ele>111.8</ele>
        <time>2025-01-09T09:38:02Z</time>
      </trkpt>
      <trkpt lat="48.6062" lon="2.01087">
        <ele>111.4</ele>
        <time>2025-01-09T09:38:09Z</time>
      </trkpt>
      <trkpt lat="48.6061" lon="2.01084">
        <ele>110.9</ele>
        <time>2025-01-09T09:38:20Z</time>
      </trkpt>
      <trkpt lat="48.606" lon="2.01079">
        <ele>110.9</ele>
        <time>2025-01-09T09:38:27Z</time>
      </trkpt>
      <trkpt lat="48.6059" lon="2.01074">
        <ele>110.9</ele>
        <time>2025-01-09T09:38:35Z</time>
      </trkpt>
      <trkpt lat="48.60581" lon="2.01068">
        <ele>111</ele>
        <time>2025-01-09T09:38:42Z</time>
      </trkpt>
      <trkpt lat="48.60572" lon="2.01064">
        <ele>111</ele>
        <time>2025-01-09T09:38:49Z</time>
      </trkpt>
      <trkpt lat="48.60562" lon="2.01057">
        <ele>111.1</ele>
        <time>2025-01-09T09:38:56Z</time>
      </trkpt>
      <trkpt lat="48.60553" lon="2.01052">
        <ele>111.1</ele>
        <time>2025-01-09T09:39:03Z</time>
      </trkpt>
      <trkpt lat="48.60544" lon="2.01046">
        <ele>110.8</ele>
        <time>2025-01-09T09:39:10Z</time>
      </trkpt>
      <trkpt lat="48.60534" lon="2.0104">
        <ele>110.6</ele>
        <time>2025-01-09T09:39:17Z</time>
      </trkpt>
      <trkpt lat="48.60526" lon="2.01033">
        <ele>110.6</ele>
        <time>2025-01-09T09:39:24Z</time>
      </trkpt>
      <trkpt lat="48.60518" lon="2.01027">
        <ele>110.3</ele>
        <time>2025-01-09T09:39:32Z</time>
      </trkpt>
      <trkpt lat="48.60509" lon="2.01023">
        <ele>109.8</ele>
        <time>2025-01-09T09:39:41Z</time>
      </trkpt>
      <trkpt lat="48.60511" lon="2.0101">
        <ele>110.5</ele>
        <time>2025-01-09T09:40:12Z</time>
      </trkpt>
      <trkpt lat="48.60519" lon="2.00999">
        <ele>111.4</ele>
        <time>2025-01-09T09:40:20Z</time>
      </trkpt>
      <trkpt lat="48.60525" lon="2.00988">
        <ele>112.2</ele>
        <time>2025-01-09T09:40:28Z</time>
      </trkpt>
      <trkpt lat="48.60529" lon="2.00976">
        <ele>113</ele>
        <time>2025-01-09T09:40:35Z</time>
      </trkpt>
      <trkpt lat="48.60537" lon="2.00966">
        <ele>113.7</ele>
        <time>2025-01-09T09:40:44Z</time>
      </trkpt>
      <trkpt lat="48.60545" lon="2.00958">
        <ele>114.2</ele>
        <time>2025-01-09T09:40:51Z</time>
      </trkpt>
      <trkpt lat="48.60553" lon="2.0095">
        <ele>114.8</ele>
        <time>2025-01-09T09:40:59Z</time>
      </trkpt>
      <trkpt lat="48.6056" lon="2.0094">
        <ele>115.3</ele>
        <time>2025-01-09T09:41:07Z</time>
      </trkpt>
      <trkpt lat="48.60566" lon="2.00929">
        <ele>115.7</ele>
        <time>2025-01-09T09:41:14Z</time>
      </trkpt>
      <trkpt lat="48.60571" lon="2.00917">
        <ele>116.1</ele>
        <time>2025-01-09T09:41:22Z</time>
      </trkpt>
      <trkpt lat="48.60578" lon="2.00906">
        <ele>116.6</ele>
        <time>2025-01-09T09:41:30Z</time>
      </trkpt>
      <trkpt lat="48.60585" lon="2.00896">
        <ele>117.2</ele>
        <time>2025-01-09T09:41:38Z</time>
      </trkpt>
      <trkpt lat="48.60592" lon="2.00887">
        <ele>117.9</ele>
        <time>2025-01-09T09:41:45Z</time>
      </trkpt>
      <trkpt lat="48.60599" lon="2.00878">
        <ele>118.5</ele>
        <time>2025-01-09T09:41:52Z</time>
      </trkpt>
      <trkpt lat="48.60607" lon="2.00868">
        <ele>118.9</ele>
        <time>2025-01-09T09:42:00Z</time>
      </trkpt>
      <trkpt lat="48.60614" lon="2.00859">
        <ele>119.3</ele>
        <time>2025-01-09T09:42:07Z</time>
      </trkpt>
      <trkpt lat="48.60622" lon="2.0085">
        <ele>120</ele>
        <time>2025-01-09T09:42:14Z</time>
      </trkpt>
      <trkpt lat="48.60623" lon="2.00835">
        <ele>119.9</ele>
        <time>2025-01-09T09:42:23Z</time>
      </trkpt>
      <trkpt lat="48.60628" lon="2.00822">
        <ele>120.5</ele>
        <time>2025-01-09T09:42:30Z</time>
      </trkpt>
      <trkpt lat="48.60636" lon="2.00813">
        <ele>121.4</ele>
        <time>2025-01-09T09:42:38Z</time>
      </trkpt>
      <trkpt lat="48.60643" lon="2.00802">
        <ele>122.3</ele>
        <time>2025-01-09T09:42:48Z</time>
      </trkpt>
      <trkpt lat="48.6065" lon="2.00793">
        <ele>123</ele>
        <time>2025-01-09T09:43:01Z</time>
      </trkpt>
      <trkpt lat="48.60657" lon="2.00784">
        <ele>123.8</ele>
        <time>2025-01-09T09:43:11Z</time>
      </trkpt>
      <trkpt lat="48.60664" lon="2.00773">
        <ele>124.7</ele>
        <time>2025-01-09T09:43:22Z</time>
      </trkpt>
      <trkpt lat="48.60672" lon="2.00765">
        <ele>125.6</ele>
        <time>2025-01-09T09:43:31Z</time>
      </trkpt>
      <trkpt lat="48.6068" lon="2.00762">
        <ele>126.8</ele>
        <time>2025-01-09T09:43:40Z</time>
      </trkpt>
      <trkpt lat="48.6069" lon="2.00764">
        <ele>127.9</ele>
        <time>2025-01-09T09:43:51Z</time>
      </trkpt>
      <trkpt lat="48.60699" lon="2.00759">
        <ele>129.1</ele>
        <time>2025-01-09T09:44:06Z</time>
      </trkpt>
      <trkpt lat="48.60706" lon="2.00751">
        <ele>130.2</ele>
        <time>2025-01-09T09:44:18Z</time>
      </trkpt>
      <trkpt lat="48.60714" lon="2.00744">
        <ele>131.4</ele>
        <time>2025-01-09T09:44:28Z</time>
      </trkpt>
      <trkpt lat="48.60721" lon="2.00734">
        <ele>132.4</ele>
        <time>2025-01-09T09:44:37Z</time>
      </trkpt>
      <trkpt lat="48.60728" lon="2.00725">
        <ele>133.1</ele>
        <time>2025-01-09T09:44:46Z</time>
      </trkpt>
      <trkpt lat="48.60731" lon="2.00712">
        <ele>133.8</ele>
        <time>2025-01-09T09:44:53Z</time>
      </trkpt>
      <trkpt lat="48.60736" lon="2.00699">
        <ele>134.7</ele>
        <time>2025-01-09T09:45:02Z</time>
      </trkpt>
      <trkpt lat="48.60738" lon="2.00685">
        <ele>135.5</ele>
        <time>2025-01-09T09:45:09Z</time>
      </trkpt>
      <trkpt lat="48.60743" lon="2.00672">
        <ele>136.7</ele>
        <time>2025-01-09T09:45:18Z</time>
      </trkpt>
      <trkpt lat="48.60751" lon="2.00665">
        <ele>138.1</ele>
        <time>2025-01-09T09:45:33Z</time>
      </trkpt>
      <trkpt lat="48.6076" lon="2.00663">
        <ele>138.6</ele>
        <time>2025-01-09T09:45:58Z</time>
      </trkpt>
      <trkpt lat="48.60767" lon="2.00654">
        <ele>139.7</ele>
        <time>2025-01-09T09:46:25Z</time>
      </trkpt>
      <trkpt lat="48.60775" lon="2.00646">
        <ele>141</ele>
        <time>2025-01-09T09:46:34Z</time>
      </trkpt>
      <trkpt lat="48.60776" lon="2.00632">
        <ele>142.4</ele>
        <time>2025-01-09T09:46:42Z</time>
      </trkpt>
      <trkpt lat="48.60776" lon="2.00618">
        <ele>143.3</ele>
        <time>2025-01-09T09:46:50Z</time>
      </trkpt>
      <trkpt lat="48.60777" lon="2.00605">
        <ele>144.4</ele>
        <time>2025-01-09T09:46:57Z</time>
      </trkpt>
      <trkpt lat="48.60777" lon="2.0059">
        <ele>145.5</ele>
        <time>2025-01-09T09:47:05Z</time>
      </trkpt>
      <trkpt lat="48.60775" lon="2.00576">
        <ele>146.4</ele>
        <time>2025-01-09T09:47:13Z</time>
      </trkpt>
      <trkpt lat="48.60776" lon="2.00562">
        <ele>147.5</ele>
        <time>2025-01-09T09:47:23Z</time>
      </trkpt>
      <trkpt lat="48.60777" lon="2.00548">
        <ele>148.3</ele>
        <time>2025-01-09T09:47:32Z</time>
      </trkpt>
      <trkpt lat="48.60778" lon="2.00533">
        <ele>148.8</ele>
        <time>2025-01-09T09:47:40Z</time>
      </trkpt>
      <trkpt lat="48.60782" lon="2.0052">
        <ele>148.3</ele>
        <time>2025-01-09T09:47:49Z</time>
      </trkpt>
      <trkpt lat="48.60786" lon="2.00506">
        <ele>148.3</ele>
        <time>2025-01-09T09:47:57Z</time>
      </trkpt>
      <trkpt lat="48.6079" lon="2.00493">
        <ele>148.2</ele>
        <time>2025-01-09T09:48:06Z</time>
      </trkpt>
      <trkpt lat="48.60795" lon="2.00482">
        <ele>148.3</ele>
        <time>2025-01-09T09:48:14Z</time>
      </trkpt>
      <trkpt lat="48.60804" lon="2.00474">
        <ele>148</ele>
        <time>2025-01-09T09:48:22Z</time>
      </trkpt>
      <trkpt lat="48.60811" lon="2.00462">
        <ele>148.4</ele>
        <time>2025-01-09T09:48:29Z</time>
      </trkpt>
      <trkpt lat="48.60818" lon="2.00455">
        <ele>148.6</ele>
        <time>2025-01-09T09:48:37Z</time>
      </trkpt>
      <trkpt lat="48.60828" lon="2.00452">
        <ele>148.4</ele>
        <time>2025-01-09T09:48:45Z</time>
      </trkpt>
      <trkpt lat="48.60836" lon="2.00443">
        <ele>149.2</ele>
        <time>2025-01-09T09:48:52Z</time>
      </trkpt>
      <trkpt lat="48.60844" lon="2.00437">
        <ele>149.8</ele>
        <time>2025-01-09T09:49:00Z</time>
      </trkpt>
      <trkpt lat="48.60853" lon="2.00437">
        <ele>150.1</ele>
        <time>2025-01-09T09:49:09Z</time>
      </trkpt>
      <trkpt lat="48.60862" lon="2.00433">
        <ele>150.5</ele>
        <time>2025-01-09T09:49:20Z</time>
      </trkpt>
      <trkpt lat="48.60871" lon="2.00431">
        <ele>150.8</ele>
        <time>2025-01-09T09:49:29Z</time>
      </trkpt>
      <trkpt lat="48.6088" lon="2.00424">
        <ele>151.4</ele>
        <time>2025-01-09T09:49:42Z</time>
      </trkpt>
      <trkpt lat="48.6089" lon="2.00422">
        <ele>151.8</ele>
        <time>2025-01-09T09:49:47Z</time>
      </trkpt>
      <trkpt lat="48.609" lon="2.00421">
        <ele>151.9</ele>
        <time>2025-01-09T09:49:52Z</time>
      </trkpt>
      <trkpt lat="48.6091" lon="2.00419">
        <ele>151.9</ele>
        <time>2025-01-09T09:49:59Z</time>
      </trkpt>
      <trkpt lat="48.6092" lon="2.00416">
        <ele>152</ele>
        <time>2025-01-09T09:50:06Z</time>
      </trkpt>
      <trkpt lat="48.60929" lon="2.00412">
        <ele>152.1</ele>
        <time>2025-01-09T09:50:13Z</time>
      </trkpt>
      <trkpt lat="48.60937" lon="2.00408">
        <ele>152.2</ele>
        <time>2025-01-09T09:50:22Z</time>
      </trkpt>
      <trkpt lat="48.60946" lon="2.00405">
        <ele>152.4</ele>
        <time>2025-01-09T09:50:31Z</time>
      </trkpt>
      <trkpt lat="48.60955" lon="2.004">
        <ele>152.6</ele>
        <time>2025-01-09T09:50:38Z</time>
      </trkpt>
      <trkpt lat="48.60963" lon="2.00394">
        <ele>152.8</ele>
        <time>2025-01-09T09:50:48Z</time>
      </trkpt>
      <trkpt lat="48.60971" lon="2.00387">
        <ele>153</ele>
        <time>2025-01-09T09:50:58Z</time>
      </trkpt>
      <trkpt lat="48.6098" lon="2.00384">
        <ele>152.8</ele>
        <time>2025-01-09T09:51:06Z</time>
      </trkpt>
      <trkpt lat="48.60989" lon="2.00379">
        <ele>152.6</ele>
        <time>2025-01-09T09:51:14Z</time>
      </trkpt>
      <trkpt lat="48.60998" lon="2.00378">
        <ele>152.4</ele>
        <time>2025-01-09T09:51:26Z</time>
      </trkpt>
      <trkpt lat="48.61008" lon="2.00382">
        <ele>152.2</ele>
        <time>2025-01-09T09:51:37Z</time>
      </trkpt>
      <trkpt lat="48.61016" lon="2.00375">
        <ele>152.2</ele>
        <time>2025-01-09T09:51:47Z</time>
      </trkpt>
      <trkpt lat="48.61025" lon="2.00368">
        <ele>152.1</ele>
        <time>2025-01-09T09:51:56Z</time>
      </trkpt>
      <trkpt lat="48.61032" lon="2.00359">
        <ele>152</ele>
        <time>2025-01-09T09:52:05Z</time>
      </trkpt>
      <trkpt lat="48.61039" lon="2.00348">
        <ele>152</ele>
        <time>2025-01-09T09:52:14Z</time>
      </trkpt>
      <trkpt lat="48.61046" lon="2.00339">
        <ele>152</ele>
        <time>2025-01-09T09:52:21Z</time>
      </trkpt>
      <trkpt lat="48.61054" lon="2.00331">
        <ele>152</ele>
        <time>2025-01-09T09:52:31Z</time>
      </trkpt>
      <trkpt lat="48.61063" lon="2.00328">
        <ele>152</ele>
        <time>2025-01-09T09:53:00Z</time>
      </trkpt>
      <trkpt lat="48.61072" lon="2.00323">
        <ele>152</ele>
        <time>2025-01-09T09:53:12Z</time>
      </trkpt>
      <trkpt lat="48.6108" lon="2.00317">
        <ele>152</ele>
        <time>2025-01-09T09:53:19Z</time>
      </trkpt>
      <trkpt lat="48.61089" lon="2.00314">
        <ele>152</ele>
        <time>2025-01-09T09:53:26Z</time>
      </trkpt>
      <trkpt lat="48.61098" lon="2.00308">
        <ele>152</ele>
        <time>2025-01-09T09:53:33Z</time>
      </trkpt>
      <trkpt lat="48.61107" lon="2.003">
        <ele>152.2</ele>
        <time>2025-01-09T09:53:41Z</time>
      </trkpt>
      <trkpt lat="48.61116" lon="2.00299">
        <ele>152.4</ele>
        <time>2025-01-09T09:53:48Z</time>
      </trkpt>
      <trkpt lat="48.61126" lon="2.00297">
        <ele>152.7</ele>
        <time>2025-01-09T09:53:56Z</time>
      </trkpt>
      <trkpt lat="48.61136" lon="2.00294">
        <ele>152.9</ele>
        <time>2025-01-09T09:54:03Z</time>
      </trkpt>
      <trkpt lat="48.61144" lon="2.00289">
        <ele>152.8</ele>
        <time>2025-01-09T09:54:09Z</time>
      </trkpt>
      <trkpt lat="48.61153" lon="2.00284">
        <ele>152.5</ele>
        <time>2025-01-09T09:54:17Z</time>
      </trkpt>
      <trkpt lat="48.61162" lon="2.00278">
        <ele>152.2</ele>
        <time>2025-01-09T09:54:25Z</time>
      </trkpt>
      <trkpt lat="48.61171" lon="2.00273">
        <ele>151.7</ele>
        <time>2025-01-09T09:54:31Z</time>
      </trkpt>
      <trkpt lat="48.61181" lon="2.0027">
        <ele>151.2</ele>
        <time>2025-01-09T09:54:37Z</time>
      </trkpt>
      <trkpt lat="48.61189" lon="2.00265">
        <ele>150.7</ele>
        <time>2025-01-09T09:54:53Z</time>
      </trkpt>
      <trkpt lat="48.61198" lon="2.00258">
        <ele>150</ele>
        <time>2025-01-09T09:55:01Z</time>
      </trkpt>
      <trkpt lat="48.61207" lon="2.00251">
        <ele>149.2</ele>
        <time>2025-01-09T09:55:08Z</time>
      </trkpt>
      <trkpt lat="48.61214" lon="2.00243">
        <ele>148.2</ele>
        <time>2025-01-09T09:55:15Z</time>
      </trkpt>
      <trkpt lat="48.61221" lon="2.00234">
        <ele>146.9</ele>
        <time>2025-01-09T09:55:23Z</time>
      </trkpt>
      <trkpt lat="48.61229" lon="2.00224">
        <ele>145.4</ele>
        <time>2025-01-09T09:55:33Z</time>
      </trkpt>
      <trkpt lat="48.61236" lon="2.00214">
        <ele>143.9</ele>
        <time>2025-01-09T09:55:41Z</time>
      </trkpt>
      <trkpt lat="48.61245" lon="2.00209">
        <ele>142.6</ele>
        <time>2025-01-09T09:55:48Z</time>
      </trkpt>
      <trkpt lat="48.61254" lon="2.00215">
        <ele>142</ele>
        <time>2025-01-09T09:55:56Z</time>
      </trkpt>
      <trkpt lat="48.61262" lon="2.00223">
        <ele>141.3</ele>
        <time>2025-01-09T09:56:03Z</time>
      </trkpt>
      <trkpt lat="48.6127" lon="2.00231">
        <ele>140.7</ele>
        <time>2025-01-09T09:56:12Z</time>
      </trkpt>
      <trkpt lat="48.6128" lon="2.00235">
        <ele>139.7</ele>
        <time>2025-01-09T09:56:20Z</time>
      </trkpt>
      <trkpt lat="48.61288" lon="2.00241">
        <ele>139.1</ele>
        <time>2025-01-09T09:56:28Z</time>
      </trkpt>
      <trkpt lat="48.61297" lon="2.00239">
        <ele>137.9</ele>
        <time>2025-01-09T09:56:38Z</time>
      </trkpt>
      <trkpt lat="48.61307" lon="2.00242">
        <ele>136.9</ele>
        <time>2025-01-09T09:56:46Z</time>
      </trkpt>
      <trkpt lat="48.61317" lon="2.00242">
        <ele>135.9</ele>
        <time>2025-01-09T09:56:54Z</time>
      </trkpt>
      <trkpt lat="48.61326" lon="2.00239">
        <ele>134.6</ele>
        <time>2025-01-09T09:57:03Z</time>
      </trkpt>
      <trkpt lat="48.61333" lon="2.0023">
        <ele>132.9</ele>
        <time>2025-01-09T09:57:15Z</time>
      </trkpt>
      <trkpt lat="48.61343" lon="2.00228">
        <ele>131.9</ele>
        <time>2025-01-09T09:57:30Z</time>
      </trkpt>
      <trkpt lat="48.61351" lon="2.00219">
        <ele>130.5</ele>
        <time>2025-01-09T09:57:42Z</time>
      </trkpt>
      <trkpt lat="48.61359" lon="2.00213">
        <ele>129.5</ele>
        <time>2025-01-09T09:57:51Z</time>
      </trkpt>
      <trkpt lat="48.61365" lon="2.00201">
        <ele>128.4</ele>
        <time>2025-01-09T09:57:59Z</time>
      </trkpt>
      <trkpt lat="48.61369" lon="2.00188">
        <ele>127.4</ele>
        <time>2025-01-09T09:58:06Z</time>
      </trkpt>
      <trkpt lat="48.61377" lon="2.00179">
        <ele>126.6</ele>
        <time>2025-01-09T09:58:14Z</time>
      </trkpt>
      <trkpt lat="48.61384" lon="2.00171">
        <ele>125.7</ele>
        <time>2025-01-09T09:58:22Z</time>
      </trkpt>
      <trkpt lat="48.6139" lon="2.00161">
        <ele>124.7</ele>
        <time>2025-01-09T09:58:29Z</time>
      </trkpt>
      <trkpt lat="48.61398" lon="2.00152">
        <ele>124</ele>
        <time>2025-01-09T09:58:38Z</time>
      </trkpt>
      <trkpt lat="48.61402" lon="2.00139">
        <ele>123.1</ele>
        <time>2025-01-09T09:58:44Z</time>
      </trkpt>
      <trkpt lat="48.61411" lon="2.00133">
        <ele>122.2</ele>
        <time>2025-01-09T09:58:51Z</time>
      </trkpt>
      <trkpt lat="48.61419" lon="2.00123">
        <ele>121.3</ele>
        <time>2025-01-09T09:58:57Z</time>
      </trkpt>
      <trkpt lat="48.61429" lon="2.00128">
        <ele>120.9</ele>
        <time>2025-01-09T09:59:05Z</time>
      </trkpt>
      <trkpt lat="48.61437" lon="2.00137">
        <ele>120.5</ele>
        <time>2025-01-09T09:59:12Z</time>
      </trkpt>
      <trkpt lat="48.61445" lon="2.00144">
        <ele>120.4</ele>
        <time>2025-01-09T09:59:20Z</time>
      </trkpt>
      <trkpt lat="48.61451" lon="2.00155">
        <ele>120.9</ele>
        <time>2025-01-09T09:59:28Z</time>
      </trkpt>
      <trkpt lat="48.6146" lon="2.00165">
        <ele>120.8</ele>
        <time>2025-01-09T09:59:35Z</time>
      </trkpt>
      <trkpt lat="48.61468" lon="2.00172">
        <ele>120.7</ele>
        <time>2025-01-09T09:59:42Z</time>
      </trkpt>
      <trkpt lat="48.61476" lon="2.0018">
        <ele>120.7</ele>
        <time>2025-01-09T09:59:53Z</time>
      </trkpt>
      <trkpt lat="48.61484" lon="2.00189">
        <ele>120.8</ele>
        <time>2025-01-09T10:00:02Z</time>
      </trkpt>
      <trkpt lat="48.6149" lon="2.002">
        <ele>121.1</ele>
        <time>2025-01-09T10:00:15Z</time>
      </trkpt>
      <trkpt lat="48.61496" lon="2.0021">
        <ele>121.3</ele>
        <time>2025-01-09T10:00:24Z</time>
      </trkpt>
      <trkpt lat="48.61502" lon="2.00221">
        <ele>121.8</ele>
        <time>2025-01-09T10:00:32Z</time>
      </trkpt>
      <trkpt lat="48.61507" lon="2.00234">
        <ele>122.2</ele>
        <time>2025-01-09T10:00:40Z</time>
      </trkpt>
      <trkpt lat="48.61512" lon="2.00245">
        <ele>122.4</ele>
        <time>2025-01-09T10:00:48Z</time>
      </trkpt>
      <trkpt lat="48.61517" lon="2.00257">
        <ele>122.8</ele>
        <time>2025-01-09T10:00:56Z</time>
      </trkpt>
      <trkpt lat="48.61522" lon="2.00271">
        <ele>123.6</ele>
        <time>2025-01-09T10:01:04Z</time>
      </trkpt>
      <trkpt lat="48.61529" lon="2.00281">
        <ele>123.9</ele>
        <time>2025-01-09T10:01:11Z</time>
      </trkpt>
      <trkpt lat="48.61536" lon="2.00292">
        <ele>123.6</ele>
        <time>2025-01-09T10:01:19Z</time>
      </trkpt>
      <trkpt lat="48.61542" lon="2.00303">
        <ele>123.4</ele>
        <time>2025-01-09T10:01:28Z</time>
      </trkpt>
      <trkpt lat="48.61548" lon="2.00315">
        <ele>123.4</ele>
        <time>2025-01-09T10:01:37Z</time>
      </trkpt>
      <trkpt lat="48.61556" lon="2.00322">
        <ele>123</ele>
        <time>2025-01-09T10:01:45Z</time>
      </trkpt>
      <trkpt lat="48.61564" lon="2.00331">
        <ele>122.4</ele>
        <time>2025-01-09T10:01:53Z</time>
      </trkpt>
      <trkpt lat="48.6157" lon="2.00319">
        <ele>122</ele>
        <time>2025-01-09T10:02:06Z</time>
      </trkpt>
      <trkpt lat="48.61575" lon="2.00308">
        <ele>121.6</ele>
        <time>2025-01-09T10:02:13Z</time>
      </trkpt>
      <trkpt lat="48.6158" lon="2.00295">
        <ele>121.2</ele>
        <time>2025-01-09T10:02:21Z</time>
      </trkpt>
      <trkpt lat="48.61584" lon="2.00281">
        <ele>121</ele>
        <time>2025-01-09T10:02:28Z</time>
      </trkpt>
      <trkpt lat="48.61593" lon="2.00279">
        <ele>120.3</ele>
        <time>2025-01-09T10:02:37Z</time>
      </trkpt>
      <trkpt lat="48.61598" lon="2.0029">
        <ele>120</ele>
        <time>2025-01-09T10:02:52Z</time>
      </trkpt>
      <trkpt lat="48.61607" lon="2.00299">
        <ele>119.3</ele>
        <time>2025-01-09T10:03:00Z</time>
      </trkpt>
      <trkpt lat="48.61616" lon="2.00295">
        <ele>118.8</ele>
        <time>2025-01-09T10:03:07Z</time>
      </trkpt>
      <trkpt lat="48.61625" lon="2.00297">
        <ele>118.5</ele>
        <time>2025-01-09T10:03:16Z</time>
      </trkpt>
      <trkpt lat="48.61634" lon="2.0029">
        <ele>118.2</ele>
        <time>2025-01-09T10:03:23Z</time>
      </trkpt>
      <trkpt lat="48.61642" lon="2.00281">
        <ele>117.9</ele>
        <time>2025-01-09T10:03:29Z</time>
      </trkpt>
      <trkpt lat="48.6165" lon="2.00273">
        <ele>117.6</ele>
        <time>2025-01-09T10:03:35Z</time>
      </trkpt>
      <trkpt lat="48.61656" lon="2.00262">
        <ele>117.4</ele>
        <time>2025-01-09T10:03:42Z</time>
      </trkpt>
      <trkpt lat="48.61664" lon="2.00254">
        <ele>117.1</ele>
        <time>2025-01-09T10:03:49Z</time>
      </trkpt>
      <trkpt lat="48.61673" lon="2.00247">
        <ele>116.8</ele>
        <time>2025-01-09T10:03:56Z</time>
      </trkpt>
      <trkpt lat="48.61682" lon="2.00241">
        <ele>116.6</ele>
        <time>2025-01-09T10:04:03Z</time>
      </trkpt>
      <trkpt lat="48.61691" lon="2.00234">
        <ele>116.6</ele>
        <time>2025-01-09T10:04:10Z</time>
      </trkpt>
      <trkpt lat="48.61699" lon="2.00227">
        <ele>116.7</ele>
        <time>2025-01-09T10:04:16Z</time>
      </trkpt>
      <trkpt lat="48.61708" lon="2.00224">
        <ele>116.5</ele>
        <time>2025-01-09T10:04:22Z</time>
      </trkpt>
      <trkpt lat="48.61718" lon="2.00224">
        <ele>116.1</ele>
        <time>2025-01-09T10:04:29Z</time>
      </trkpt>
      <trkpt lat="48.61728" lon="2.00223">
        <ele>116</ele>
        <time>2025-01-09T10:04:36Z</time>
      </trkpt>
      <trkpt lat="48.61737" lon="2.00216">
        <ele>116</ele>
        <time>2025-01-09T10:04:43Z</time>
      </trkpt>
      <trkpt lat="48.61745" lon="2.00223">
        <ele>116</ele>
        <time>2025-01-09T10:04:58Z</time>
      </trkpt>
      <trkpt lat="48.61754" lon="2.00223">
        <ele>115.8</ele>
        <time>2025-01-09T10:05:04Z</time>
      </trkpt>
      <trkpt lat="48.61763" lon="2.00217">
        <ele>115.5</ele>
        <time>2025-01-09T10:05:10Z</time>
      </trkpt>
      <trkpt lat="48.6177" lon="2.00207">
        <ele>115.3</ele>
        <time>2025-01-09T10:05:16Z</time>
      </trkpt>
      <trkpt lat="48.61779" lon="2.002">
        <ele>115</ele>
        <time>2025-01-09T10:05:23Z</time>
      </trkpt>
      <trkpt lat="48.61788" lon="2.00204">
        <ele>114.6</ele>
        <time>2025-01-09T10:05:29Z</time>
      </trkpt>
      <trkpt lat="48.61795" lon="2.00214">
        <ele>114.4</ele>
        <time>2025-01-09T10:05:36Z</time>
      </trkpt>
      <trkpt lat="48.61803" lon="2.00222">
        <ele>114.1</ele>
        <time>2025-01-09T10:05:44Z</time>
      </trkpt>
      <trkpt lat="48.6181" lon="2.0023">
        <ele>113.8</ele>
        <time>2025-01-09T10:05:51Z</time>
      </trkpt>
      <trkpt lat="48.61819" lon="2.00235">
        <ele>113.5</ele>
        <time>2025-01-09T10:05:59Z</time>
      </trkpt>
      <trkpt lat="48.6183" lon="2.00235">
        <ele>113.1</ele>
        <time>2025-01-09T10:06:21Z</time>
      </trkpt>
      <trkpt lat="48.61839" lon="2.00233">
        <ele>112.8</ele>
        <time>2025-01-09T10:06:30Z</time>
      </trkpt>
      <trkpt lat="48.61849" lon="2.00234">
        <ele>112.4</ele>
        <time>2025-01-09T10:06:39Z</time>
      </trkpt>
      <trkpt lat="48.61859" lon="2.00234">
        <ele>112.1</ele>
        <time>2025-01-09T10:06:43Z</time>
      </trkpt>
      <trkpt lat="48.61868" lon="2.00234">
        <ele>111.7</ele>
        <time>2025-01-09T10:06:50Z</time>
      </trkpt>
      <trkpt lat="48.61879" lon="2.00234">
        <ele>111.4</ele>
        <time>2025-01-09T10:06:57Z</time>
      </trkpt>
      <trkpt lat="48.61888" lon="2.00231">
        <ele>111</ele>
        <time>2025-01-09T10:07:03Z</time>
      </trkpt>
      <trkpt lat="48.61897" lon="2.00227">
        <ele>110.7</ele>
        <time>2025-01-09T10:07:09Z</time>
      </trkpt>
      <trkpt lat="48.61906" lon="2.00227">
        <ele>110.4</ele>
        <time>2025-01-09T10:07:16Z</time>
      </trkpt>
      <trkpt lat="48.61916" lon="2.00226">
        <ele>110</ele>
        <time>2025-01-09T10:07:23Z</time>
      </trkpt>
      <trkpt lat="48.61925" lon="2.00226">
        <ele>109.7</ele>
        <time>2025-01-09T10:07:33Z</time>
      </trkpt>
      <trkpt lat="48.61935" lon="2.00226">
        <ele>109.4</ele>
        <time>2025-01-09T10:07:42Z</time>
      </trkpt>
      <trkpt lat="48.61944" lon="2.00224">
        <ele>109</ele>
        <time>2025-01-09T10:07:49Z</time>
      </trkpt>
      <trkpt lat="48.61954" lon="2.00219">
        <ele>108.6</ele>
        <time>2025-01-09T10:07:55Z</time>
      </trkpt>
      <trkpt lat="48.61964" lon="2.00221">
        <ele>108.3</ele>
        <time>2025-01-09T10:08:02Z</time>
      </trkpt>
      <trkpt lat="48.61974" lon="2.00217">
        <ele>108</ele>
        <time>2025-01-09T10:08:08Z</time>
      </trkpt>
      <trkpt lat="48.61983" lon="2.00219">
        <ele>108</ele>
        <time>2025-01-09T10:08:15Z</time>
      </trkpt>
      <trkpt lat="48.61993" lon="2.0022">
        <ele>108</ele>
        <time>2025-01-09T10:08:21Z</time>
      </trkpt>
      <trkpt lat="48.62003" lon="2.00221">
        <ele>108</ele>
        <time>2025-01-09T10:08:27Z</time>
      </trkpt>
      <trkpt lat="48.62012" lon="2.00221">
        <ele>108</ele>
        <time>2025-01-09T10:08:34Z</time>
      </trkpt>
      <trkpt lat="48.62021" lon="2.00221">
        <ele>108</ele>
        <time>2025-01-09T10:08:41Z</time>
      </trkpt>
      <trkpt lat="48.62032" lon="2.00221">
        <ele>108</ele>
        <time>2025-01-09T10:08:48Z</time>
      </trkpt>
      <trkpt lat="48.62042" lon="2.00219">
        <ele>108</ele>
        <time>2025-01-09T10:08:54Z</time>
      </trkpt>
      <trkpt lat="48.62051" lon="2.00218">
        <ele>108</ele>
        <time>2025-01-09T10:09:00Z</time>
      </trkpt>
      <trkpt lat="48.62061" lon="2.00216">
        <ele>108.2</ele>
        <time>2025-01-09T10:09:07Z</time>
      </trkpt>
      <trkpt lat="48.6207" lon="2.00214">
        <ele>108.5</ele>
        <time>2025-01-09T10:09:16Z</time>
      </trkpt>
      <trkpt lat="48.6208" lon="2.00214">
        <ele>108.9</ele>
        <time>2025-01-09T10:09:27Z</time>
      </trkpt>
      <trkpt lat="48.62089" lon="2.00216">
        <ele>109.2</ele>
        <time>2025-01-09T10:09:38Z</time>
      </trkpt>
      <trkpt lat="48.62099" lon="2.00218">
        <ele>109.6</ele>
        <time>2025-01-09T10:09:46Z</time>
      </trkpt>
      <trkpt lat="48.62108" lon="2.00222">
        <ele>109.9</ele>
        <time>2025-01-09T10:09:53Z</time>
      </trkpt>
      <trkpt lat="48.62117" lon="2.00222">
        <ele>110.4</ele>
        <time>2025-01-09T10:10:01Z</time>
      </trkpt>
      <trkpt lat="48.62126" lon="2.00223">
        <ele>111.1</ele>
        <time>2025-01-09T10:10:09Z</time>
      </trkpt>
      <trkpt lat="48.62136" lon="2.00222">
        <ele>111.8</ele>
        <time>2025-01-09T10:10:17Z</time>
      </trkpt>
      <trkpt lat="48.62145" lon="2.00221">
        <ele>112.4</ele>
        <time>2025-01-09T10:10:57Z</time>
      </trkpt>
      <trkpt lat="48.62155" lon="2.00217">
        <ele>113.2</ele>
        <time>2025-01-09T10:11:04Z</time>
      </trkpt>
      <trkpt lat="48.62164" lon="2.00217">
        <ele>113.8</ele>
        <time>2025-01-09T10:11:11Z</time>
      </trkpt>
      <trkpt lat="48.62174" lon="2.00213">
        <ele>114.4</ele>
        <time>2025-01-09T10:11:18Z</time>
      </trkpt>
      <trkpt lat="48.62184" lon="2.00214">
        <ele>114.8</ele>
        <time>2025-01-09T10:11:26Z</time>
      </trkpt>
      <trkpt lat="48.62193" lon="2.00209">
        <ele>115.4</ele>
        <time>2025-01-09T10:11:35Z</time>
      </trkpt>
      <trkpt lat="48.62193" lon="2.00195">
        <ele>115.8</ele>
        <time>2025-01-09T10:11:44Z</time>
      </trkpt>
      <trkpt lat="48.62191" lon="2.00181">
        <ele>115.8</ele>
        <time>2025-01-09T10:11:52Z</time>
      </trkpt>
      <trkpt lat="48.62193" lon="2.00166">
        <ele>115.9</ele>
        <time>2025-01-09T10:12:01Z</time>
      </trkpt>
      <trkpt lat="48.62194" lon="2.00152">
        <ele>116.5</ele>
        <time>2025-01-09T10:12:08Z</time>
      </trkpt>
      <trkpt lat="48.62194" lon="2.00137">
        <ele>117</ele>
        <time>2025-01-09T10:12:15Z</time>
      </trkpt>
      <trkpt lat="48.62194" lon="2.00123">
        <ele>117</ele>
        <time>2025-01-09T10:12:22Z</time>
      </trkpt>
      <trkpt lat="48.62196" lon="2.00107">
        <ele>117.1</ele>
        <time>2025-01-09T10:12:29Z</time>
      </trkpt>
      <trkpt lat="48.62197" lon="2.00093">
        <ele>117.2</ele>
        <time>2025-01-09T10:12:36Z</time>
      </trkpt>
      <trkpt lat="48.62198" lon="2.00079">
        <ele>117.3</ele>
        <time>2025-01-09T10:12:42Z</time>
      </trkpt>
      <trkpt lat="48.62202" lon="2.00066">
        <ele>117.5</ele>
        <time>2025-01-09T10:12:51Z</time>
      </trkpt>
      <trkpt lat="48.62202" lon="2.00051">
        <ele>117.5</ele>
        <time>2025-01-09T10:12:58Z</time>
      </trkpt>
      <trkpt lat="48.62203" lon="2.00037">
        <ele>117.6</ele>
        <time>2025-01-09T10:13:05Z</time>
      </trkpt>
      <trkpt lat="48.62204" lon="2.00021">
        <ele>117.7</ele>
        <time>2025-01-09T10:13:13Z</time>
      </trkpt>
      <trkpt lat="48.62207" lon="2.00007">
        <ele>117.9</ele>
        <time>2025-01-09T10:13:21Z</time>
      </trkpt>
      <trkpt lat="48.6221" lon="1.99993">
        <ele>118.1</ele>
        <time>2025-01-09T10:13:30Z</time>
      </trkpt>
      <trkpt lat="48.62212" lon="1.99979">
        <ele>118.2</ele>
        <time>2025-01-09T10:13:38Z</time>
      </trkpt>
      <trkpt lat="48.62214" lon="1.99965">
        <ele>118.5</ele>
        <time>2025-01-09T10:13:46Z</time>
      </trkpt>
      <trkpt lat="48.62218" lon="1.99951">
        <ele>118.8</ele>
        <time>2025-01-09T10:13:56Z</time>
      </trkpt>
      <trkpt lat="48.62222" lon="1.99938">
        <ele>119</ele>
        <time>2025-01-09T10:14:06Z</time>
      </trkpt>
      <trkpt lat="48.62225" lon="1.99923">
        <ele>119</ele>
        <time>2025-01-09T10:14:17Z</time>
      </trkpt>
      <trkpt lat="48.62228" lon="1.99909">
        <ele>118.8</ele>
        <time>2025-01-09T10:14:26Z</time>
      </trkpt>
      <trkpt lat="48.6223" lon="1.99895">
        <ele>118.4</ele>
        <time>2025-01-09T10:14:34Z</time>
      </trkpt>
      <trkpt lat="48.62228" lon="1.9988">
        <ele>117.9</ele>
        <time>2025-01-09T10:14:42Z</time>
      </trkpt>
      <trkpt lat="48.62224" lon="1.99866">
        <ele>117.2</ele>
        <time>2025-01-09T10:14:49Z</time>
      </trkpt>
      <trkpt lat="48.6222" lon="1.99853">
        <ele>116.7</ele>
        <time>2025-01-09T10:14:57Z</time>
      </trkpt>
      <trkpt lat="48.62212" lon="1.99846">
        <ele>116.3</ele>
        <time>2025-01-09T10:15:05Z</time>
      </trkpt>
      <trkpt lat="48.62207" lon="1.99834">
        <ele>115.5</ele>
        <time>2025-01-09T10:15:11Z</time>
      </trkpt>
      <trkpt lat="48.62207" lon="1.99819">
        <ele>115.2</ele>
        <time>2025-01-09T10:15:18Z</time>
      </trkpt>
      <trkpt lat="48.62204" lon="1.99804">
        <ele>114.6</ele>
        <time>2025-01-09T10:15:24Z</time>
      </trkpt>
      <trkpt lat="48.62205" lon="1.9979">
        <ele>114.2</ele>
        <time>2025-01-09T10:15:30Z</time>
      </trkpt>
      <trkpt lat="48.62205" lon="1.99776">
        <ele>113.7</ele>
        <time>2025-01-09T10:15:39Z</time>
      </trkpt>
      <trkpt lat="48.62211" lon="1.99764">
        <ele>113.6</ele>
        <time>2025-01-09T10:15:48Z</time>
      </trkpt>
      <trkpt lat="48.62218" lon="1.99754">
        <ele>113.2</ele>
        <time>2025-01-09T10:15:56Z</time>
      </trkpt>
      <trkpt lat="48.62225" lon="1.99743">
        <ele>112.9</ele>
        <time>2025-01-09T10:16:04Z</time>
      </trkpt>
      <trkpt lat="48.62233" lon="1.99735">
        <ele>112.8</ele>
        <time>2025-01-09T10:16:11Z</time>
      </trkpt>
      <trkpt lat="48.62241" lon="1.99726">
        <ele>112.4</ele>
        <time>2025-01-09T10:16:18Z</time>
      </trkpt>
      <trkpt lat="48.62248" lon="1.99717">
        <ele>111.7</ele>
        <time>2025-01-09T10:16:24Z</time>
      </trkpt>
      <trkpt lat="48.62255" lon="1.99708">
        <ele>111.2</ele>
        <time>2025-01-09T10:16:30Z</time>
      </trkpt>
      <trkpt lat="48.62263" lon="1.99699">
        <ele>110.8</ele>
        <time>2025-01-09T10:16:36Z</time>
      </trkpt>
      <trkpt lat="48.62273" lon="1.99696">
        <ele>111</ele>
        <time>2025-01-09T10:16:43Z</time>
      </trkpt>
      <trkpt lat="48.62282" lon="1.99691">
        <ele>110.8</ele>
        <time>2025-01-09T10:16:50Z</time>
      </trkpt>
      <trkpt lat="48.62289" lon="1.99682">
        <ele>110</ele>
        <time>2025-01-09T10:16:57Z</time>
      </trkpt>
      <trkpt lat="48.62298" lon="1.99673">
        <ele>109.4</ele>
        <time>2025-01-09T10:17:04Z</time>
      </trkpt>
      <trkpt lat="48.62306" lon="1.99667">
        <ele>109</ele>
        <time>2025-01-09T10:17:11Z</time>
      </trkpt>
      <trkpt lat="48.62315" lon="1.99661">
        <ele>108.6</ele>
        <time>2025-01-09T10:17:18Z</time>
      </trkpt>
      <trkpt lat="48.62324" lon="1.99655">
        <ele>108.1</ele>
        <time>2025-01-09T10:17:25Z</time>
      </trkpt>
      <trkpt lat="48.62333" lon="1.9965">
        <ele>107.8</ele>
        <time>2025-01-09T10:17:32Z</time>
      </trkpt>
      <trkpt lat="48.62342" lon="1.99644">
        <ele>107.3</ele>
        <time>2025-01-09T10:17:39Z</time>
      </trkpt>
      <trkpt lat="48.62347" lon="1.99631">
        <ele>106.9</ele>
        <time>2025-01-09T10:17:46Z</time>
      </trkpt>
      <trkpt lat="48.62352" lon="1.9962">
        <ele>106.5</ele>
        <time>2025-01-09T10:18:18Z</time>
      </trkpt>
      <trkpt lat="48.62357" lon="1.99608">
        <ele>106.2</ele>
        <time>2025-01-09T10:18:24Z</time>
      </trkpt>
      <trkpt lat="48.62361" lon="1.99596">
        <ele>106.6</ele>
        <time>2025-01-09T10:18:30Z</time>
      </trkpt>
      <trkpt lat="48.62366" lon="1.99583">
        <ele>107</ele>
        <time>2025-01-09T10:18:37Z</time>
      </trkpt>
      <trkpt lat="48.62372" lon="1.99571">
        <ele>107</ele>
        <time>2025-01-09T10:18:44Z</time>
      </trkpt>
      <trkpt lat="48.62379" lon="1.99561">
        <ele>107</ele>
        <time>2025-01-09T10:18:52Z</time>
      </trkpt>
      <trkpt lat="48.62387" lon="1.99552">
        <ele>107</ele>
        <time>2025-01-09T10:19:00Z</time>
      </trkpt>
      <trkpt lat="48.62391" lon="1.9954">
        <ele>107.1</ele>
        <time>2025-01-09T10:19:15Z</time>
      </trkpt>
      <trkpt lat="48.624" lon="1.99535">
        <ele>107.4</ele>
        <time>2025-01-09T10:19:22Z</time>
      </trkpt>
      <trkpt lat="48.6241" lon="1.99533">
        <ele>107.8</ele>
        <time>2025-01-09T10:19:30Z</time>
      </trkpt>
      <trkpt lat="48.62419" lon="1.99533">
        <ele>108.1</ele>
        <time>2025-01-09T10:19:37Z</time>
      </trkpt>
      <trkpt lat="48.62428" lon="1.99534">
        <ele>108.7</ele>
        <time>2025-01-09T10:19:45Z</time>
      </trkpt>
      <trkpt lat="48.62438" lon="1.99537">
        <ele>109.3</ele>
        <time>2025-01-09T10:19:53Z</time>
      </trkpt>
      <trkpt lat="48.62448" lon="1.99539">
        <ele>109.7</ele>
        <time>2025-01-09T10:20:00Z</time>
      </trkpt>
      <trkpt lat="48.62458" lon="1.99543">
        <ele>109.9</ele>
        <time>2025-01-09T10:20:07Z</time>
      </trkpt>
      <trkpt lat="48.62467" lon="1.99545">
        <ele>110.2</ele>
        <time>2025-01-09T10:20:14Z</time>
      </trkpt>
      <trkpt lat="48.62476" lon="1.99546">
        <ele>110.5</ele>
        <time>2025-01-09T10:20:21Z</time>
      </trkpt>
      <trkpt lat="48.62485" lon="1.99547">
        <ele>110.9</ele>
        <time>2025-01-09T10:20:29Z</time>
      </trkpt>
      <trkpt lat="48.62494" lon="1.99549">
        <ele>111.4</ele>
        <time>2025-01-09T10:20:37Z</time>
      </trkpt>
      <trkpt lat="48.62504" lon="1.99549">
        <ele>111.8</ele>
        <time>2025-01-09T10:20:44Z</time>
      </trkpt>
      <trkpt lat="48.62514" lon="1.99549">
        <ele>111.7</ele>
        <time>2025-01-09T10:20:52Z</time>
      </trkpt>
      <trkpt lat="48.62523" lon="1.99547">
        <ele>111.7</ele>
        <time>2025-01-09T10:20:58Z</time>
      </trkpt>
      <trkpt lat="48.62533" lon="1.99547">
        <ele>111.8</ele>
        <time>2025-01-09T10:21:05Z</time>
      </trkpt>
      <trkpt lat="48.62543" lon="1.99546">
        <ele>112</ele>
        <time>2025-01-09T10:21:12Z</time>
      </trkpt>
      <trkpt lat="48.62552" lon="1.99543">
        <ele>112</ele>
        <time>2025-01-09T10:21:18Z</time>
      </trkpt>
      <trkpt lat="48.62561" lon="1.99546">
        <ele>112.5</ele>
        <time>2025-01-09T10:21:25Z</time>
      </trkpt>
      <trkpt lat="48.6257" lon="1.99549">
        <ele>113.1</ele>
        <time>2025-01-09T10:21:31Z</time>
      </trkpt>
      <trkpt lat="48.6258" lon="1.99552">
        <ele>113.7</ele>
        <time>2025-01-09T10:21:37Z</time>
      </trkpt>
      <trkpt lat="48.6259" lon="1.99554">
        <ele>114.4</ele>
        <time>2025-01-09T10:21:44Z</time>
      </trkpt>
      <trkpt lat="48.62599" lon="1.99551">
        <ele>114.7</ele>
        <time>2025-01-09T10:21:52Z</time>
      </trkpt>
      <trkpt lat="48.62608" lon="1.99553">
        <ele>115.6</ele>
        <time>2025-01-09T10:21:59Z</time>
      </trkpt>
      <trkpt lat="48.62617" lon="1.99556">
        <ele>116.5</ele>
        <time>2025-01-09T10:22:11Z</time>
      </trkpt>
      <trkpt lat="48.62627" lon="1.99554">
        <ele>117</ele>
        <time>2025-01-09T10:22:20Z</time>
      </trkpt>
      <trkpt lat="48.62636" lon="1.99551">
        <ele>117.3</ele>
        <time>2025-01-09T10:22:27Z</time>
      </trkpt>
      <trkpt lat="48.62645" lon="1.99547">
        <ele>117</ele>
        <time>2025-01-09T10:22:36Z</time>
      </trkpt>
      <trkpt lat="48.62654" lon="1.99543">
        <ele>116.4</ele>
        <time>2025-01-09T10:22:44Z</time>
      </trkpt>
      <trkpt lat="48.62663" lon="1.99544">
        <ele>116.4</ele>
        <time>2025-01-09T10:23:01Z</time>
      </trkpt>
      <trkpt lat="48.62673" lon="1.99545">
        <ele>116.8</ele>
        <time>2025-01-09T10:23:11Z</time>
      </trkpt>
      <trkpt lat="48.62682" lon="1.99541">
        <ele>116.7</ele>
        <time>2025-01-09T10:23:18Z</time>
      </trkpt>
      <trkpt lat="48.62691" lon="1.99537">
        <ele>116.4</ele>
        <time>2025-01-09T10:23:38Z</time>
      </trkpt>
      <trkpt lat="48.627" lon="1.99535">
        <ele>116.5</ele>
        <time>2025-01-09T10:23:46Z</time>
      </trkpt>
      <trkpt lat="48.62709" lon="1.99535">
        <ele>116.8</ele>
        <time>2025-01-09T10:23:57Z</time>
      </trkpt>
      <trkpt lat="48.62719" lon="1.99536">
        <ele>117.3</ele>
        <time>2025-01-09T10:24:07Z</time>
      </trkpt>
      <trkpt lat="48.62728" lon="1.99536">
        <ele>118</ele>
        <time>2025-01-09T10:24:16Z</time>
      </trkpt>
      <trkpt lat="48.62737" lon="1.99536">
        <ele>118.7</ele>
        <time>2025-01-09T10:24:23Z</time>
      </trkpt>
      <trkpt lat="48.62747" lon="1.99539">
        <ele>119.9</ele>
        <time>2025-01-09T10:24:32Z</time>
      </trkpt>
      <trkpt lat="48.62756" lon="1.99541">
        <ele>120.5</ele>
        <time>2025-01-09T10:24:38Z</time>
      </trkpt>
      <trkpt lat="48.62766" lon="1.99542">
        <ele>120.8</ele>
        <time>2025-01-09T10:24:45Z</time>
      </trkpt>
      <trkpt lat="48.62775" lon="1.99542">
        <ele>121</ele>
        <time>2025-01-09T10:24:52Z</time>
      </trkpt>
      <trkpt lat="48.62784" lon="1.99548">
        <ele>121.2</ele>
        <time>2025-01-09T10:25:02Z</time>
      </trkpt>
      <trkpt lat="48.62794" lon="1.99551">
        <ele>121.1</ele>
        <time>2025-01-09T10:25:10Z</time>
      </trkpt>
      <trkpt lat="48.62803" lon="1.99552">
        <ele>120.8</ele>
        <time>2025-01-09T10:25:18Z</time>
      </trkpt>
      <trkpt lat="48.62813" lon="1.99554">
        <ele>120.4</ele>
        <time>2025-01-09T10:25:26Z</time>
      </trkpt>
      <trkpt lat="48.62822" lon="1.99551">
        <ele>119.6</ele>
        <time>2025-01-09T10:25:33Z</time>
      </trkpt>
      <trkpt lat="48.62832" lon="1.9955">
        <ele>118.8</ele>
        <time>2025-01-09T10:25:39Z</time>
      </trkpt>
      <trkpt lat="48.62843" lon="1.99552">
        <ele>118.2</ele>
        <time>2025-01-09T10:25:46Z</time>
      </trkpt>
      <trkpt lat="48.62853" lon="1.99551">
        <ele>117.4</ele>
        <time>2025-01-09T10:25:52Z</time>
      </trkpt>
      <trkpt lat="48.62863" lon="1.9955">
        <ele>116.7</ele>
        <time>2025-01-09T10:26:00Z</time>
      </trkpt>
      <trkpt lat="48.62872" lon="1.99551">
        <ele>116</ele>
        <time>2025-01-09T10:26:45Z</time>
      </trkpt>
      <trkpt lat="48.62881" lon="1.99559">
        <ele>115.7</ele>
        <time>2025-01-09T10:30:02Z</time>
      </trkpt>
      <trkpt lat="48.62891" lon="1.99556">
        <ele>115</ele>
        <time>2025-01-09T10:30:13Z</time>
      </trkpt>
      <trkpt lat="48.629" lon="1.99557">
        <ele>115</ele>
        <time>2025-01-09T10:30:24Z</time>
      </trkpt>
      <trkpt lat="48.6291" lon="1.99558">
        <ele>115</ele>
        <time>2025-01-09T10:30:32Z</time>
      </trkpt>
      <trkpt lat="48.62919" lon="1.9956">
        <ele>115.1</ele>
        <time>2025-01-09T10:30:41Z</time>
      </trkpt>
      <trkpt lat="48.62928" lon="1.99562">
        <ele>115.5</ele>
        <time>2025-01-09T10:30:49Z</time>
      </trkpt>
      <trkpt lat="48.62938" lon="1.99559">
        <ele>115.9</ele>
        <time>2025-01-09T10:30:58Z</time>
      </trkpt>
      <trkpt lat="48.62948" lon="1.99555">
        <ele>116.4</ele>
        <time>2025-01-09T10:31:08Z</time>
      </trkpt>
      <trkpt lat="48.62952" lon="1.99544">
        <ele>116.6</ele>
        <time>2025-01-09T10:31:15Z</time>
      </trkpt>
      <trkpt lat="48.62959" lon="1.99533">
        <ele>116.9</ele>
        <time>2025-01-09T10:31:23Z</time>
      </trkpt>
      <trkpt lat="48.62967" lon="1.99525">
        <ele>117.3</ele>
        <time>2025-01-09T10:31:33Z</time>
      </trkpt>
      <trkpt lat="48.62973" lon="1.99514">
        <ele>117.1</ele>
        <time>2025-01-09T10:31:40Z</time>
      </trkpt>
      <trkpt lat="48.6298" lon="1.99504">
        <ele>117.1</ele>
        <time>2025-01-09T10:31:48Z</time>
      </trkpt>
      <trkpt lat="48.62987" lon="1.99493">
        <ele>117.2</ele>
        <time>2025-01-09T10:31:56Z</time>
      </trkpt>
      <trkpt lat="48.62992" lon="1.99481">
        <ele>117</ele>
        <time>2025-01-09T10:32:04Z</time>
      </trkpt>
      <trkpt lat="48.62997" lon="1.99469">
        <ele>116.7</ele>
        <time>2025-01-09T10:32:12Z</time>
      </trkpt>
      <trkpt lat="48.63004" lon="1.99459">
        <ele>116.8</ele>
        <time>2025-01-09T10:32:21Z</time>
      </trkpt>
      <trkpt lat="48.63007" lon="1.99446">
        <ele>116.6</ele>
        <time>2025-01-09T10:32:30Z</time>
      </trkpt>
      <trkpt lat="48.63014" lon="1.99436">
        <ele>116.8</ele>
        <time>2025-01-09T10:32:46Z</time>
      </trkpt>
      <trkpt lat="48.63022" lon="1.99427">
        <ele>117.1</ele>
        <time>2025-01-09T10:32:58Z</time>
      </trkpt>
      <trkpt lat="48.63027" lon="1.99415">
        <ele>116.9</ele>
        <time>2025-01-09T10:33:07Z</time>
      </trkpt>
      <trkpt lat="48.63031" lon="1.99402">
        <ele>116.7</ele>
        <time>2025-01-09T10:33:17Z</time>
      </trkpt>
      <trkpt lat="48.63039" lon="1.99394">
        <ele>116.9</ele>
        <time>2025-01-09T10:33:28Z</time>
      </trkpt>
      <trkpt lat="48.63046" lon="1.99382">
        <ele>117.3</ele>
        <time>2025-01-09T10:33:37Z</time>
      </trkpt>
      <trkpt lat="48.63052" lon="1.9937">
        <ele>117.7</ele>
        <time>2025-01-09T10:33:44Z</time>
      </trkpt>
      <trkpt lat="48.63056" lon="1.99358">
        <ele>118.1</ele>
        <time>2025-01-09T10:33:51Z</time>
      </trkpt>
      <trkpt lat="48.6306" lon="1.99345">
        <ele>118.3</ele>
        <time>2025-01-09T10:33:59Z</time>
      </trkpt>
      <trkpt lat="48.63062" lon="1.99331">
        <ele>118.5</ele>
        <time>2025-01-09T10:34:07Z</time>
      </trkpt>
      <trkpt lat="48.63067" lon="1.99318">
        <ele>118.8</ele>
        <time>2025-01-09T10:34:15Z</time>
      </trkpt>
      <trkpt lat="48.63069" lon="1.99305">
        <ele>118.9</ele>
        <time>2025-01-09T10:34:21Z</time>
      </trkpt>
      <trkpt lat="48.6307" lon="1.9929">
        <ele>119</ele>
        <time>2025-01-09T10:34:28Z</time>
      </trkpt>
      <trkpt lat="48.63073" lon="1.99277">
        <ele>119.2</ele>
        <time>2025-01-09T10:34:36Z</time>
      </trkpt>
      <trkpt lat="48.63075" lon="1.99263">
        <ele>118.9</ele>
        <time>2025-01-09T10:34:44Z</time>
      </trkpt>
      <trkpt lat="48.63079" lon="1.99248">
        <ele>118.6</ele>
        <time>2025-01-09T10:34:52Z</time>
      </trkpt>
      <trkpt lat="48.63081" lon="1.99234">
        <ele>118.2</ele>
        <time>2025-01-09T10:34:59Z</time>
      </trkpt>
      <trkpt lat="48.63086" lon="1.9922">
        <ele>118.1</ele>
        <time>2025-01-09T10:35:08Z</time>
      </trkpt>
      <trkpt lat="48.6309" lon="1.99207">
        <ele>117.8</ele>
        <time>2025-01-09T10:35:17Z</time>
      </trkpt>
      <trkpt lat="48.63094" lon="1.99194">
        <ele>117.4</ele>
        <time>2025-01-09T10:35:24Z</time>
      </trkpt>
      <trkpt lat="48.63099" lon="1.99182">
        <ele>117.1</ele>
        <time>2025-01-09T10:35:33Z</time>
      </trkpt>
      <trkpt lat="48.63103" lon="1.99168">
        <ele>116.8</ele>
        <time>2025-01-09T10:35:40Z</time>
      </trkpt>
      <trkpt lat="48.63107" lon="1.99155">
        <ele>116.4</ele>
        <time>2025-01-09T10:35:48Z</time>
      </trkpt>
      <trkpt lat="48.63114" lon="1.99146">
        <ele>116.3</ele>
        <time>2025-01-09T10:35:57Z</time>
      </trkpt>
      <trkpt lat="48.63119" lon="1.99134">
        <ele>116.1</ele>
        <time>2025-01-09T10:36:05Z</time>
      </trkpt>
      <trkpt lat="48.63123" lon="1.99122">
        <ele>115.8</ele>
        <time>2025-01-09T10:36:13Z</time>
      </trkpt>
      <trkpt lat="48.6313" lon="1.99112">
        <ele>115.7</ele>
        <time>2025-01-09T10:36:21Z</time>
      </trkpt>
      <trkpt lat="48.63136" lon="1.991">
        <ele>115.2</ele>
        <time>2025-01-09T10:36:29Z</time>
      </trkpt>
      <trkpt lat="48.6314" lon="1.99087">
        <ele>114.3</ele>
        <time>2025-01-09T10:36:36Z</time>
      </trkpt>
      <trkpt lat="48.63145" lon="1.99075">
        <ele>113.9</ele>
        <time>2025-01-09T10:36:45Z</time>
      </trkpt>
      <trkpt lat="48.63154" lon="1.9908">
        <ele>114.4</ele>
        <time>2025-01-09T10:36:55Z</time>
      </trkpt>
      <trkpt lat="48.63158" lon="1.99093">
        <ele>115.4</ele>
        <time>2025-01-09T10:37:08Z</time>
      </trkpt>
      <trkpt lat="48.63165" lon="1.99103">
        <ele>116.3</ele>
        <time>2025-01-09T10:37:19Z</time>
      </trkpt>
      <trkpt lat="48.63172" lon="1.99113">
        <ele>117.2</ele>
        <time>2025-01-09T10:37:29Z</time>
      </trkpt>
      <trkpt lat="48.63176" lon="1.99125">
        <ele>117.8</ele>
        <time>2025-01-09T10:37:40Z</time>
      </trkpt>
      <trkpt lat="48.63183" lon="1.99134">
        <ele>118.4</ele>
        <time>2025-01-09T10:37:52Z</time>
      </trkpt>
      <trkpt lat="48.63192" lon="1.99136">
        <ele>118.8</ele>
        <time>2025-01-09T10:38:00Z</time>
      </trkpt>
      <trkpt lat="48.63202" lon="1.99138">
        <ele>119.3</ele>
        <time>2025-01-09T10:38:07Z</time>
      </trkpt>
      <trkpt lat="48.63212" lon="1.99141">
        <ele>119.7</ele>
        <time>2025-01-09T10:38:15Z</time>
      </trkpt>
      <trkpt lat="48.6322" lon="1.99149">
        <ele>120.3</ele>
        <time>2025-01-09T10:38:22Z</time>
      </trkpt>
      <trkpt lat="48.63228" lon="1.99158">
        <ele>120.8</ele>
        <time>2025-01-09T10:38:31Z</time>
      </trkpt>
      <trkpt lat="48.63234" lon="1.99169">
        <ele>121.6</ele>
        <time>2025-01-09T10:38:40Z</time>
      </trkpt>
      <trkpt lat="48.63241" lon="1.99179">
        <ele>122.5</ele>
        <time>2025-01-09T10:38:49Z</time>
      </trkpt>
      <trkpt lat="48.63247" lon="1.9919">
        <ele>123.6</ele>
        <time>2025-01-09T10:38:58Z</time>
      </trkpt>
      <trkpt lat="48.63254" lon="1.992">
        <ele>124.4</ele>
        <time>2025-01-09T10:39:05Z</time>
      </trkpt>
      <trkpt lat="48.63262" lon="1.99209">
        <ele>125.1</ele>
        <time>2025-01-09T10:39:13Z</time>
      </trkpt>
      <trkpt lat="48.6327" lon="1.99216">
        <ele>125.6</ele>
        <time>2025-01-09T10:39:20Z</time>
      </trkpt>
      <trkpt lat="48.63278" lon="1.99225">
        <ele>126.2</ele>
        <time>2025-01-09T10:39:29Z</time>
      </trkpt>
      <trkpt lat="48.63287" lon="1.99226">
        <ele>127.3</ele>
        <time>2025-01-09T10:39:37Z</time>
      </trkpt>
      <trkpt lat="48.63295" lon="1.99217">
        <ele>127.4</ele>
        <time>2025-01-09T10:39:45Z</time>
      </trkpt>
      <trkpt lat="48.63302" lon="1.99208">
        <ele>127.5</ele>
        <time>2025-01-09T10:39:53Z</time>
      </trkpt>
      <trkpt lat="48.63308" lon="1.99196">
        <ele>127.3</ele>
        <time>2025-01-09T10:40:00Z</time>
      </trkpt>
      <trkpt lat="48.63315" lon="1.99184">
        <ele>126.5</ele>
        <time>2025-01-09T10:40:07Z</time>
      </trkpt>
      <trkpt lat="48.63322" lon="1.99173">
        <ele>125.9</ele>
        <time>2025-01-09T10:40:15Z</time>
      </trkpt>
      <trkpt lat="48.6333" lon="1.99165">
        <ele>125.7</ele>
        <time>2025-01-09T10:40:23Z</time>
      </trkpt>
      <trkpt lat="48.63336" lon="1.99155">
        <ele>125.9</ele>
        <time>2025-01-09T10:40:32Z</time>
      </trkpt>
      <trkpt lat="48.63342" lon="1.99144">
        <ele>126.4</ele>
        <time>2025-01-09T10:40:39Z</time>
      </trkpt>
      <trkpt lat="48.63349" lon="1.99136">
        <ele>127.3</ele>
        <time>2025-01-09T10:40:46Z</time>
      </trkpt>
      <trkpt lat="48.63356" lon="1.99125">
        <ele>128.2</ele>
        <time>2025-01-09T10:40:53Z</time>
      </trkpt>
      <trkpt lat="48.63362" lon="1.99115">
        <ele>129.1</ele>
        <time>2025-01-09T10:41:01Z</time>
      </trkpt>
      <trkpt lat="48.63367" lon="1.99103">
        <ele>130.2</ele>
        <time>2025-01-09T10:41:07Z</time>
      </trkpt>
      <trkpt lat="48.63371" lon="1.99089">
        <ele>131.5</ele>
        <time>2025-01-09T10:41:14Z</time>
      </trkpt>
      <trkpt lat="48.63374" lon="1.99075">
        <ele>132.8</ele>
        <time>2025-01-09T10:41:21Z</time>
      </trkpt>
      <trkpt lat="48.6338" lon="1.99064">
        <ele>134.6</ele>
        <time>2025-01-09T10:41:30Z</time>
      </trkpt>
      <trkpt lat="48.63384" lon="1.99051">
        <ele>136.2</ele>
        <time>2025-01-09T10:41:39Z</time>
      </trkpt>
      <trkpt lat="48.63389" lon="1.99039">
        <ele>138.2</ele>
        <time>2025-01-09T10:41:48Z</time>
      </trkpt>
      <trkpt lat="48.63393" lon="1.99025">
        <ele>139.6</ele>
        <time>2025-01-09T10:41:57Z</time>
      </trkpt>
      <trkpt lat="48.63396" lon="1.99012">
        <ele>139.5</ele>
        <time>2025-01-09T10:42:07Z</time>
      </trkpt>
      <trkpt lat="48.63401" lon="1.99001">
        <ele>139.8</ele>
        <time>2025-01-09T10:42:25Z</time>
      </trkpt>
      <trkpt lat="48.63406" lon="1.98988">
        <ele>139.5</ele>
        <time>2025-01-09T10:42:37Z</time>
      </trkpt>
      <trkpt lat="48.63407" lon="1.98974">
        <ele>138.4</ele>
        <time>2025-01-09T10:42:44Z</time>
      </trkpt>
      <trkpt lat="48.63405" lon="1.98958">
        <ele>137.4</ele>
        <time>2025-01-09T10:42:50Z</time>
      </trkpt>
      <trkpt lat="48.63401" lon="1.98944">
        <ele>136.4</ele>
        <time>2025-01-09T10:42:59Z</time>
      </trkpt>
      <trkpt lat="48.63399" lon="1.9893">
        <ele>135.5</ele>
        <time>2025-01-09T10:43:07Z</time>
      </trkpt>
      <trkpt lat="48.634" lon="1.98917">
        <ele>134.6</ele>
        <time>2025-01-09T10:43:13Z</time>
      </trkpt>
      <trkpt lat="48.63405" lon="1.98904">
        <ele>132.9</ele>
        <time>2025-01-09T10:43:21Z</time>
      </trkpt>
      <trkpt lat="48.63402" lon="1.9889">
        <ele>131.1</ele>
        <time>2025-01-09T10:43:30Z</time>
      </trkpt>
      <trkpt lat="48.63393" lon="1.98882">
        <ele>130.1</ele>
        <time>2025-01-09T10:43:40Z</time>
      </trkpt>
      <trkpt lat="48.63387" lon="1.98873">
        <ele>128.7</ele>
        <time>2025-01-09T10:43:49Z</time>
      </trkpt>
      <trkpt lat="48.63387" lon="1.98859">
        <ele>126.7</ele>
        <time>2025-01-09T10:43:57Z</time>
      </trkpt>
      <trkpt lat="48.63395" lon="1.98851">
        <ele>125.6</ele>
        <time>2025-01-09T10:44:06Z</time>
      </trkpt>
      <trkpt lat="48.63387" lon="1.98843">
        <ele>124.4</ele>
        <time>2025-01-09T10:44:15Z</time>
      </trkpt>
      <trkpt lat="48.63383" lon="1.98829">
        <ele>122.5</ele>
        <time>2025-01-09T10:44:28Z</time>
      </trkpt>
      <trkpt lat="48.63391" lon="1.9882">
        <ele>121.7</ele>
        <time>2025-01-09T10:44:41Z</time>
      </trkpt>
      <trkpt lat="48.634" lon="1.98819">
        <ele>122</ele>
        <time>2025-01-09T10:44:49Z</time>
      </trkpt>
      <trkpt lat="48.63408" lon="1.98823">
        <ele>122.9</ele>
        <time>2025-01-09T10:44:57Z</time>
      </trkpt>
      <trkpt lat="48.63417" lon="1.9883">
        <ele>123.8</ele>
        <time>2025-01-09T10:45:06Z</time>
      </trkpt>
      <trkpt lat="48.63426" lon="1.98835">
        <ele>124.8</ele>
        <time>2025-01-09T10:45:16Z</time>
      </trkpt>
      <trkpt lat="48.63435" lon="1.98838">
        <ele>125.8</ele>
        <time>2025-01-09T10:45:26Z</time>
      </trkpt>
      <trkpt lat="48.63444" lon="1.98846">
        <ele>126.9</ele>
        <time>2025-01-09T10:45:36Z</time>
      </trkpt>
      <trkpt lat="48.63451" lon="1.98855">
        <ele>127.8</ele>
        <time>2025-01-09T10:45:45Z</time>
      </trkpt>
      <trkpt lat="48.6346" lon="1.98859">
        <ele>128.4</ele>
        <time>2025-01-09T10:45:52Z</time>
      </trkpt>
      <trkpt lat="48.63468" lon="1.98866">
        <ele>129.4</ele>
        <time>2025-01-09T10:46:01Z</time>
      </trkpt>
      <trkpt lat="48.63477" lon="1.9887">
        <ele>130.2</ele>
        <time>2025-01-09T10:46:09Z</time>
      </trkpt>
      <trkpt lat="48.63485" lon="1.98878">
        <ele>131.5</ele>
        <time>2025-01-09T10:46:18Z</time>
      </trkpt>
      <trkpt lat="48.63492" lon="1.98888">
        <ele>132.7</ele>
        <time>2025-01-09T10:46:29Z</time>
      </trkpt>
      <trkpt lat="48.63501" lon="1.98895">
        <ele>133.8</ele>
        <time>2025-01-09T10:46:37Z</time>
      </trkpt>
      <trkpt lat="48.6351" lon="1.98894">
        <ele>134.2</ele>
        <time>2025-01-09T10:46:42Z</time>
      </trkpt>
      <trkpt lat="48.6352" lon="1.98895">
        <ele>134.9</ele>
        <time>2025-01-09T10:46:51Z</time>
      </trkpt>
      <trkpt lat="48.63528" lon="1.9889">
        <ele>135.1</ele>
        <time>2025-01-09T10:46:58Z</time>
      </trkpt>
      <trkpt lat="48.63538" lon="1.9889">
        <ele>136.9</ele>
        <time>2025-01-09T10:47:08Z</time>
      </trkpt>
      <trkpt lat="48.63547" lon="1.98886">
        <ele>138.7</ele>
        <time>2025-01-09T10:47:16Z</time>
      </trkpt>
      <trkpt lat="48.63557" lon="1.98882">
        <ele>140.7</ele>
        <time>2025-01-09T10:47:24Z</time>
      </trkpt>
      <trkpt lat="48.63566" lon="1.9888">
        <ele>142.7</ele>
        <time>2025-01-09T10:47:32Z</time>
      </trkpt>
      <trkpt lat="48.63576" lon="1.98879">
        <ele>144.7</ele>
        <time>2025-01-09T10:47:40Z</time>
      </trkpt>
      <trkpt lat="48.63586" lon="1.98882">
        <ele>146.2</ele>
        <time>2025-01-09T10:47:49Z</time>
      </trkpt>
      <trkpt lat="48.63595" lon="1.98882">
        <ele>147.8</ele>
        <time>2025-01-09T10:47:58Z</time>
      </trkpt>
      <trkpt lat="48.63604" lon="1.98883">
        <ele>149.4</ele>
        <time>2025-01-09T10:48:08Z</time>
      </trkpt>
      <trkpt lat="48.63614" lon="1.98885">
        <ele>150.9</ele>
        <time>2025-01-09T10:48:17Z</time>
      </trkpt>
      <trkpt lat="48.63623" lon="1.98889">
        <ele>152.2</ele>
        <time>2025-01-09T10:48:26Z</time>
      </trkpt>
      <trkpt lat="48.63633" lon="1.98889">
        <ele>153.8</ele>
        <time>2025-01-09T10:48:34Z</time>
      </trkpt>
      <trkpt lat="48.63642" lon="1.98889">
        <ele>155.6</ele>
        <time>2025-01-09T10:48:42Z</time>
      </trkpt>
      <trkpt lat="48.63652" lon="1.98888">
        <ele>157.4</ele>
        <time>2025-01-09T10:48:53Z</time>
      </trkpt>
      <trkpt lat="48.63661" lon="1.98889">
        <ele>159</ele>
        <time>2025-01-09T10:49:01Z</time>
      </trkpt>
      <trkpt lat="48.6367" lon="1.98886">
        <ele>160.4</ele>
        <time>2025-01-09T10:49:11Z</time>
      </trkpt>
      <trkpt lat="48.6368" lon="1.98884">
        <ele>161.8</ele>
        <time>2025-01-09T10:49:20Z</time>
      </trkpt>
      <trkpt lat="48.6369" lon="1.98883">
        <ele>163.1</ele>
        <time>2025-01-09T10:49:29Z</time>
      </trkpt>
      <trkpt lat="48.63699" lon="1.98878">
        <ele>164.3</ele>
        <time>2025-01-09T10:49:38Z</time>
      </trkpt>
      <trkpt lat="48.63708" lon="1.98874">
        <ele>165.4</ele>
        <time>2025-01-09T10:49:46Z</time>
      </trkpt>
      <trkpt lat="48.63717" lon="1.98871">
        <ele>166.6</ele>
        <time>2025-01-09T10:49:54Z</time>
      </trkpt>
      <trkpt lat="48.63726" lon="1.9887">
        <ele>167.9</ele>
        <time>2025-01-09T10:50:04Z</time>
      </trkpt>
      <trkpt lat="48.63735" lon="1.98866">
        <ele>169</ele>
        <time>2025-01-09T10:50:15Z</time>
      </trkpt>
      <trkpt lat="48.63744" lon="1.98863">
        <ele>170.2</ele>
        <time>2025-01-09T10:50:25Z</time>
      </trkpt>
      <trkpt lat="48.63753" lon="1.98862">
        <ele>171.2</ele>
        <time>2025-01-09T10:51:42Z</time>
      </trkpt>
      <trkpt lat="48.63763" lon="1.9886">
        <ele>171.9</ele>
        <time>2025-01-09T10:51:52Z</time>
      </trkpt>
      <trkpt lat="48.63773" lon="1.98859">
        <ele>172.5</ele>
        <time>2025-01-09T10:52:01Z</time>
      </trkpt>
      <trkpt lat="48.6377" lon="1.98873">
        <ele>172.4</ele>
        <time>2025-01-09T10:52:15Z</time>
      </trkpt>
      <trkpt lat="48.63767" lon="1.98886">
        <ele>172.2</ele>
        <time>2025-01-09T10:52:25Z</time>
      </trkpt>
    </trkseg>
  </trk>
</gpx>